Data for 12/04/2009

Time Sea-Level Adjusted Pressure Absolute Pressure Temperature Relative Humidity Dew Point Precipitation   
(mb) (inHg) (mb) (inHg) (C) (F) (%) (C) (F) (mm) (in)
00:01 1021 30.15 851 25.13 -23.6 -10.5 75 -26.9 -16.4 -23.47 -0.924
00:02 1021 30.15 851 25.13 -23.7 -10.6 81 -26 -14.9 -23.53 -0.926
00:03 1021 30.15 851 25.13 -23.5 -10.3 80 -26.1 -15 -23.44 -0.923
00:04 1021 30.15 851 25.13 -23.7 -10.7 79 -26.4 -15.6 -23.67 -0.932
00:05 1021 30.15 851 25.13 -24 -11.2 78 -26.8 -16.2 -23.88 -0.94
00:06 1021 30.15 851 25.13 -23.9 -11.1 82 -26.2 -15.2 -23.77 -0.936
00:07 1021 30.15 851 25.13 -23.4 -10.2 88 -24.9 -12.8 -23.21 -0.914
00:08 1021 30.15 851 25.13 -22.2 -7.9 91 -23.2 -9.8 -22.04 -0.868
00:09 1021 30.15 851 25.13 -21.7 -7.1 84 -23.7 -10.7 -21.7 -0.854
00:10 1021 30.15 850 25.1 -22 -7.5 82 -24.3 -11.8 -21.94 -0.864
00:11 1021 30.15 850 25.1 -22.2 -7.9 76 -25.3 -13.5 -22.16 -0.872
00:12 1021 30.15 851 25.13 -22.7 -8.9 78 -25.6 -14.1 -22.67 -0.893
00:13 1021 30.15 851 25.13 -22.9 -9.2 80 -25.4 -13.7 -22.77 -0.896
00:14 1021 30.15 851 25.13 -22.8 -9 85 -24.7 -12.4 -22.62 -0.891
00:15 1021 30.15 851 25.13 -21.9 -7.5 89 -23.3 -9.9 -21.78 -0.857
00:16 1021 30.15 850 25.1 -21.4 -6.5 85 -23.2 -9.8 -21.23 -0.836
00:17 1021 30.15 850 25.1 -21.6 -6.8 81 -24.1 -11.3 -21.42 -0.843
00:18 1021 30.15 850 25.1 -21.3 -6.4 86 -23.1 -9.7 -21.13 -0.832
00:19 1021 30.15 850 25.1 -20.6 -5.1 88 -22.1 -7.9 -20.4 -0.803
00:20 1021 30.15 850 25.1 -20.2 -4.4 84 -22.2 -7.9 -20.03 -0.789
00:21 1021 30.15 850 25.1 -20 -3.9 82 -22.3 -8.2 -19.83 -0.781
00:22 1021 30.15 850 25.1 -20 -3.9 82 -22.4 -8.3 -19.88 -0.783
00:23 1021 30.15 850 25.1 -19.9 -3.8 77 -22.9 -9.3 -19.82 -0.78
00:24 1021 30.15 850 25.1 -20.6 -5.1 72 -24.5 -12 -20.63 -0.812
00:25 1021 30.15 850 25.1 -21.6 -6.9 71 -25.5 -14 -21.54 -0.848
00:26 1021 30.15 850 25.1 -21.6 -6.9 85 -23.4 -10.2 -21.41 -0.843
00:27 1021 30.15 850 25.1 -20.9 -5.5 85 -22.8 -9 -20.64 -0.813
00:28 1021 30.15 850 25.1 -21.1 -6 75 -24.4 -12 -20.92 -0.824
00:29 1021 30.15 850 25.1 -21.7 -7 76 -24.9 -12.8 -21.43 -0.844
00:30 1021 30.15 850 25.1 -22.2 -7.9 76 -25.3 -13.6 -21.92 -0.863
00:31 1021 30.15 850 25.1 -22.3 -8.2 82 -24.5 -12.2 -22.01 -0.867
00:32 1021 30.15 850 25.1 -22.2 -8 81 -24.7 -12.4 -21.9 -0.862
00:33 1021 30.15 850 25.1 -22.2 -8 80 -24.8 -12.7 -21.9 -0.862
00:34 1021 30.15 850 25.1 -22.5 -8.6 78 -25.5 -13.8 -22.18 -0.873
00:35 1021 30.15 850 25.1 -22.8 -9.1 78 -25.7 -14.2 -22.44 -0.883
00:36 1021 30.15 850 25.1 -23 -9.3 80 -25.5 -13.9 -22.61 -0.89
00:37 1021 30.15 850 25.1 -22.8 -9.1 83 -24.9 -12.8 -22.46 -0.884
00:38 1021 30.15 850 25.1 -22.4 -8.2 86 -24.1 -11.3 -22.05 -0.868
00:39 1021 30.15 850 25.1 -21.9 -7.4 84 -23.9 -10.9 -21.58 -0.85
00:40 1021 30.15 850 25.1 -21.8 -7.2 83 -23.9 -11.1 -21.49 -0.846
00:41 1021 30.15 850 25.1 -21.8 -7.2 82 -24.1 -11.4 -21.44 -0.844
00:42 1021 30.15 850 25.1 -21.8 -7.2 82 -24 -11.3 -21.41 -0.843
00:43 1021 30.15 850 25.1 -21.6 -6.8 83 -23.7 -10.6 -21.24 -0.836
00:44 1021 30.15 850 25.1 -21.5 -6.7 81 -23.9 -11 -21.11 -0.831
00:45 1021 30.15 850 25.1 -21.6 -6.8 81 -24 -11.2 -21.2 -0.835
00:46 1021 30.15 850 25.1 -21.3 -6.3 84 -23.3 -9.9 -20.95 -0.825
00:47 1021 30.15 850 25.1 -21.1 -6 81 -23.5 -10.3 -20.83 -0.82
00:48 1021 30.15 850 25.1 -21.1 -6 81 -23.5 -10.3 -20.81 -0.819
00:49 1021 30.15 850 25.1 -21.2 -6.1 81 -23.6 -10.4 -20.86 -0.821
00:50 1021 30.15 850 25.1 -21.2 -6.1 82 -23.6 -10.4 -20.86 -0.821
00:51 1021 30.15 850 25.1 -21.3 -6.3 79 -24 -11.2 -20.93 -0.824
00:52 1021 30.15 850 25.1 -21.4 -6.6 78 -24.3 -11.7 -21.05 -0.829
00:53 1021 30.15 850 25.1 -21.8 -7.3 75 -25.1 -13.2 -21.49 -0.846
00:54 1021 30.15 850 25.1 -22.2 -8 80 -24.9 -12.7 -21.87 -0.861
00:55 1021 30.15 850 25.1 -22 -7.7 82 -24.3 -11.8 -21.7 -0.854
00:56 1021 30.15 850 25.1 -22 -7.5 82 -24.3 -11.8 -21.63 -0.852
00:57 1021 30.15 850 25.1 -22 -7.5 82 -24.2 -11.6 -21.58 -0.85
00:58 1021 30.15 850 25.1 -21.3 -6.4 89 -22.8 -9 -20.95 -0.825
00:59 1021 30.15 850 25.1 -20.7 -5.2 87 -22.3 -8.2 -20.35 -0.801
01:00 1021 30.15 850 25.1 -20.2 -4.4 84 -22.3 -8.1 -20 -0.787
01:01 1021 30.15 850 25.1 -20.1 -4.2 83 -22.3 -8.2 -19.85 -0.781
01:02 1021 30.15 850 25.1 -20.1 -4.2 80 -22.7 -8.8 -19.88 -0.783
01:03 1021 30.15 850 25.1 -20.3 -4.5 79 -23 -9.5 -19.99 -0.787
01:04 1021 30.15 850 25.1 -20.7 -5.2 76 -23.9 -11.1 -20.27 -0.798
01:05 1021 30.15 850 25.1 -21.1 -6 77 -24.2 -11.5 -20.61 -0.811
01:06 1021 30.15 850 25.1 -21.5 -6.6 78 -24.4 -11.9 -20.94 -0.824
01:07 1021 30.15 850 25.1 -21.6 -6.8 80 -24.2 -11.5 -21.07 -0.83
01:08 1021 30.15 850 25.1 -21.5 -6.7 81 -23.9 -11.1 -21.03 -0.828
01:09 1021 30.15 850 25.1 -21.5 -6.8 81 -23.9 -11.1 -21.04 -0.828
01:10 1021 30.15 850 25.1 -21.4 -6.5 80 -24 -11.2 -20.98 -0.826
01:11 1021 30.15 850 25.1 -21.6 -6.9 78 -24.5 -12.1 -21.13 -0.832
01:12 1021 30.15 850 25.1 -21.8 -7.3 78 -24.8 -12.6 -21.32 -0.839
01:13 1021 30.15 850 25.1 -21.8 -7.2 82 -24.1 -11.4 -21.33 -0.84
01:14 1021 30.15 850 25.1 -21.6 -6.9 82 -24 -11.2 -21.22 -0.835
01:15 1021 30.15 850 25.1 -21.3 -6.3 85 -23.2 -9.8 -20.93 -0.824
01:16 1021 30.15 850 25.1 -21.1 -6 84 -23.1 -9.6 -20.74 -0.817
01:17 1021 30.15 850 25.1 -20.7 -5.3 84 -22.8 -9.1 -20.39 -0.803
01:18 1021 30.15 850 25.1 -20.6 -5 83 -22.8 -9 -20.29 -0.799
01:19 1021 30.15 850 25.1 -20.6 -5 80 -23.2 -9.7 -20.29 -0.799
01:20 1021 30.15 850 25.1 -20.8 -5.4 80 -23.3 -10 -20.53 -0.808
01:21 1021 30.15 850 25.1 -20.9 -5.6 80 -23.5 -10.2 -20.67 -0.814
01:22 1021 30.15 850 25.1 -20.9 -5.7 80 -23.5 -10.3 -20.65 -0.813
01:23 1021 30.15 850 25.1 -21.1 -6 79 -23.9 -11 -20.8 -0.819
01:24 1021 30.15 850 25.1 -21.2 -6.2 81 -23.7 -10.7 -20.91 -0.823
01:25 1021 30.15 850 25.1 -21 -5.8 85 -22.9 -9.3 -20.66 -0.813
01:26 1021 30.15 850 25.1 -20.7 -5.3 84 -22.8 -9 -20.42 -0.804
01:27 1021 30.15 850 25.1 -20.5 -5 84 -22.6 -8.6 -20.15 -0.793
01:28 1021 30.15 850 25.1 -20.5 -4.8 82 -22.8 -9.1 -20.18 -0.794
01:29 1021 30.15 850 25.1 -20.6 -5 81 -23.1 -9.5 -20.29 -0.799
01:30 1021 30.15 850 25.1 -20.6 -5.1 83 -22.8 -9.1 -20.28 -0.798
01:31 1021 30.15 850 25.1 -20.5 -4.9 83 -22.6 -8.7 -20.18 -0.794
01:32 1021 30.15 850 25.1 -20.4 -4.6 83 -22.6 -8.6 -20.06 -0.79
01:33 1021 30.15 850 25.1 -20.4 -4.7 80 -22.9 -9.3 -20.09 -0.791
01:34 1021 30.15 850 25.1 -20.6 -5 79 -23.3 -10 -20.29 -0.799
01:35 1021 30.15 850 25.1 -20.8 -5.4 80 -23.4 -10.1 -20.49 -0.807
01:36 1021 30.15 850 25.1 -20.9 -5.7 80 -23.5 -10.3 -20.56 -0.809
01:37 1021 30.15 850 25.1 -21.1 -5.9 80 -23.7 -10.6 -20.7 -0.815
01:38 1021 30.15 850 25.1 -21 -5.9 84 -23 -9.5 -20.68 -0.814
01:39 1021 30.15 850 25.1 -20.6 -5 86 -22.4 -8.3 -20.25 -0.797
01:40 1020 30.12 850 25.1 -20.2 -4.4 84 -22.3 -8.1 -19.96 -0.786
01:41 1021 30.15 850 25.1 -20.3 -4.5 81 -22.8 -9 -20.04 -0.789
01:42 1020 30.12 850 25.1 -20.4 -4.6 81 -22.8 -9 -20.07 -0.79
01:43 1020 30.12 850 25.1 -20.5 -4.9 80 -23.1 -9.6 -20.17 -0.794
01:44 1020 30.12 850 25.1 -20.6 -5 82 -23 -9.3 -20.23 -0.796
01:45 1020 30.12 850 25.1 -20.5 -4.9 81 -23 -9.4 -20.14 -0.793
01:46 1020 30.12 850 25.1 -20.7 -5.2 82 -23 -9.3 -20.26 -0.798
01:47 1020 30.12 850 25.1 -20.4 -4.8 84 -22.5 -8.6 -20.05 -0.789
01:48 1020 30.12 850 25.1 -20.3 -4.6 81 -22.7 -8.9 -19.98 -0.787
01:49 1020 30.12 850 25.1 -20.4 -4.7 80 -23 -9.4 -20.05 -0.789
01:50 1020 30.12 850 25.1 -20.5 -5 79 -23.3 -9.9 -20.15 -0.793
01:51 1020 30.12 850 25.1 -20.6 -5.1 81 -23.1 -9.6 -20.2 -0.795
01:52 1020 30.12 850 25.1 -20.7 -5.2 80 -23.3 -10 -20.27 -0.798
01:53 1020 30.12 850 25.1 -20.8 -5.5 79 -23.6 -10.5 -20.43 -0.804
01:54 1020 30.12 850 25.1 -21 -5.7 80 -23.6 -10.4 -20.6 -0.811
01:55 1020 30.12 850 25.1 -21.1 -5.9 78 -24 -11.2 -20.69 -0.815
01:56 1020 30.12 850 25.1 -21.3 -6.3 79 -24 -11.3 -20.85 -0.821
01:57 1020 30.12 850 25.1 -21.3 -6.4 80 -24 -11.1 -20.91 -0.823
01:58 1020 30.12 850 25.1 -21.4 -6.6 77 -24.4 -12 -21.05 -0.829
01:59 1020 30.12 850 25.1 -21.7 -7.1 78 -24.7 -12.4 -21.34 -0.84
02:00 1020 30.12 850 25.1 -21.8 -7.2 81 -24.3 -11.7 -21.4 -0.843
02:01 1020 30.12 849 25.07 -21.6 -6.9 82 -23.9 -11.1 -21.23 -0.836
02:02 1020 30.12 849 25.07 -21.5 -6.8 82 -23.9 -11 -21.14 -0.832
02:03 1020 30.12 849 25.07 -21.4 -6.5 82 -23.6 -10.5 -21 -0.827
02:04 1020 30.12 849 25.07 -21.2 -6.1 83 -23.3 -10 -20.79 -0.819
02:05 1020 30.12 849 25.07 -21 -5.7 84 -23 -9.5 -20.58 -0.81
02:06 1020 30.12 849 25.07 -21 -5.7 80 -23.5 -10.3 -20.58 -0.81
02:07 1020 30.12 849 25.07 -21 -5.8 81 -23.4 -10.1 -20.64 -0.813
02:08 1020 30.12 849 25.07 -21 -5.7 81 -23.4 -10.1 -20.62 -0.812
02:09 1020 30.12 849 25.07 -20.9 -5.6 82 -23.2 -9.8 -20.59 -0.811
02:10 1020 30.12 849 25.07 -20.8 -5.5 82 -23.1 -9.6 -20.46 -0.806
02:11 1020 30.12 849 25.07 -20.8 -5.4 83 -23 -9.4 -20.4 -0.803
02:12 1020 30.12 849 25.07 -20.6 -5.1 83 -22.8 -9.1 -20.24 -0.797
02:13 1020 30.12 849 25.07 -20.5 -4.8 83 -22.7 -8.8 -20.09 -0.791
02:14 1020 30.12 849 25.07 -20.5 -4.9 80 -23.1 -9.6 -20.16 -0.794
02:15 1020 30.12 849 25.07 -20.6 -5.2 79 -23.4 -10 -20.31 -0.8
02:16 1020 30.12 849 25.07 -20.7 -5.3 81 -23.2 -9.8 -20.4 -0.803
02:17 1020 30.12 849 25.07 -20.7 -5.3 83 -22.9 -9.2 -20.32 -0.8
02:18 1020 30.12 849 25.07 -20.5 -4.9 84 -22.6 -8.7 -20.1 -0.791
02:19 1020 30.12 849 25.07 -20.3 -4.5 84 -22.4 -8.3 -19.87 -0.782
02:20 1020 30.12 849 25.07 -20 -4 84 -22.1 -7.8 -19.63 -0.773
02:21 1020 30.12 849 25.07 -19.7 -3.4 84 -21.7 -7 -19.27 -0.759
02:22 1020 30.12 849 25.07 -19.3 -2.8 83 -21.5 -6.7 -18.94 -0.746
02:23 1020 30.12 849 25.07 -19 -2.2 83 -21.2 -6.2 -18.68 -0.735
02:24 1020 30.12 849 25.07 -18.7 -1.7 84 -20.8 -5.5 -18.42 -0.725
02:25 1020 30.12 849 25.07 -18.3 -0.9 84 -20.3 -4.6 -17.94 -0.706
02:26 1020 30.12 849 25.07 -17.9 -0.1 81 -20.4 -4.7 -17.57 -0.692
02:27 1020 30.12 849 25.07 -17.8 -0.1 77 -21 -5.8 -17.65 -0.695
02:28 1020 30.12 849 25.07 -18 -0.4 78 -21 -5.7 -17.72 -0.698
02:29 1020 30.12 849 25.07 -18.1 -0.5 78 -21.1 -5.9 -17.76 -0.699
02:30 1020 30.12 849 25.07 -18.1 -0.6 79 -20.9 -5.7 -17.76 -0.699
02:31 1020 30.12 849 25.07 -18.1 -0.5 77 -21.2 -6.2 -17.77 -0.7
02:32 1020 30.12 849 25.07 -18.2 -0.8 77 -21.3 -6.3 -17.91 -0.705
02:33 1020 30.12 849 25.07 -18 -0.5 82 -20.4 -4.8 -17.67 -0.696
02:34 1020 30.12 849 25.07 -17.7 0.1 79 -20.5 -5 -17.36 -0.683
02:35 1020 30.12 849 25.07 -17.6 0.3 76 -20.8 -5.5 -17.32 -0.682
02:36 1020 30.12 849 25.07 -17.7 0.1 77 -20.9 -5.7 -17.38 -0.684
02:37 1020 30.12 849 25.07 -17.8 -0.1 79 -20.6 -5.1 -17.43 -0.686
02:38 1020 30.12 849 25.07 -17.7 0.1 79 -20.5 -4.9 -17.35 -0.683
02:39 1020 30.12 849 25.07 -17.5 0.4 80 -20.2 -4.3 -17.16 -0.676
02:40 1020 30.12 849 25.07 -17.3 0.8 79 -20.1 -4.1 -16.94 -0.667
02:41 1020 30.12 849 25.07 -17.1 1.3 78 -20 -4.1 -16.71 -0.658
02:42 1020 30.12 849 25.07 -17 1.4 78 -20 -4 -16.68 -0.657
02:43 1020 30.12 849 25.07 -16.9 1.6 75 -20.3 -4.5 -16.56 -0.652
02:44 1020 30.12 849 25.07 -17.1 1.3 75 -20.5 -4.9 -16.76 -0.66
02:45 1020 30.12 849 25.07 -17.3 0.9 75 -20.7 -5.3 -16.99 -0.669
02:46 1020 30.12 849 25.07 -17.6 0.4 76 -20.8 -5.5 -17.25 -0.679
02:47 1020 30.12 849 25.07 -17.9 -0.1 76 -21.1 -6 -17.51 -0.689
02:48 1020 30.12 849 25.07 -18.1 -0.6 76 -21.3 -6.3 -17.75 -0.699
02:49 1020 30.12 849 25.07 -18.2 -0.8 78 -21.1 -6 -17.88 -0.704
02:50 1020 30.12 849 25.07 -18.3 -0.9 77 -21.4 -6.5 -17.96 -0.707
02:51 1020 30.12 849 25.07 -18.4 -1.2 78 -21.4 -6.5 -18.08 -0.712
02:52 1020 30.12 849 25.07 -18.5 -1.3 79 -21.3 -6.3 -18.11 -0.713
02:53 1020 30.12 849 25.07 -18.5 -1.3 80 -21.2 -6.2 -18.14 -0.714
02:54 1020 30.12 849 25.07 -18.4 -1.2 80 -21.1 -6 -18.06 -0.711
02:55 1020 30.12 849 25.07 -18.5 -1.2 80 -21.2 -6.1 -18.09 -0.712
02:56 1020 30.12 849 25.07 -18.4 -1.1 81 -20.9 -5.7 -17.99 -0.708
02:57 1020 30.12 849 25.07 -18.3 -0.9 81 -20.8 -5.4 -17.89 -0.704
02:58 1020 30.12 849 25.07 -18.2 -0.8 80 -20.9 -5.6 -17.83 -0.702
02:59 1020 30.12 849 25.07 -18.3 -0.9 79 -21 -5.8 -17.86 -0.703
03:00 1019 30.09 849 25.07 -18.4 -1 78 -21.3 -6.3 -17.96 -0.707
03:01 1020 30.12 849 25.07 -18.6 -1.4 79 -21.4 -6.5 -18.14 -0.714
03:02 1020 30.12 849 25.07 -18.6 -1.5 79 -21.4 -6.6 -18.25 -0.719
03:03 1020 30.12 849 25.07 -18.7 -1.7 79 -21.5 -6.7 -18.28 -0.72
03:04 1020 30.12 849 25.07 -18.7 -1.7 79 -21.5 -6.7 -18.35 -0.722
03:05 1020 30.12 849 25.07 -18.8 -1.8 80 -21.5 -6.6 -18.37 -0.723
03:06 1019 30.09 849 25.07 -18.8 -1.8 81 -21.3 -6.3 -18.36 -0.723
03:07 1019 30.09 849 25.07 -18.7 -1.6 81 -21.2 -6.2 -18.24 -0.718
03:08 1019 30.09 849 25.07 -18.6 -1.5 81 -21 -5.9 -18.17 -0.715
03:09 1019 30.09 849 25.07 -18.5 -1.3 82 -20.9 -5.6 -18.07 -0.711
03:10 1019 30.09 849 25.07 -18.3 -1 81 -20.8 -5.5 -17.92 -0.706
03:11 1019 30.09 849 25.07 -18.3 -0.9 80 -20.9 -5.5 -17.86 -0.703
03:12 1019 30.09 849 25.07 -18.3 -0.9 81 -20.7 -5.3 -17.86 -0.703
03:13 1019 30.09 849 25.07 -18.2 -0.8 81 -20.7 -5.3 -17.77 -0.7
03:14 1019 30.09 849 25.07 -18.2 -0.7 81 -20.6 -5.2 -17.71 -0.697
03:15 1019 30.09 849 25.07 -18 -0.4 83 -20.3 -4.5 -17.58 -0.692
03:16 1019 30.09 849 25.07 -17.9 -0.1 81 -20.3 -4.6 -17.44 -0.687
03:17 1019 30.09 848 25.04 -17.7 0.1 82 -20.1 -4.1 -17.3 -0.681
03:18 1019 30.09 848 25.04 -17.6 0.4 82 -20 -4 -17.16 -0.676
03:19 1019 30.09 848 25.04 -17.4 0.6 81 -19.9 -3.8 -17.05 -0.671
03:20 1019 30.09 848 25.04 -17.3 0.8 82 -19.7 -3.5 -16.91 -0.666
03:21 1019 30.09 848 25.04 -17.2 1.1 81 -19.7 -3.5 -16.76 -0.66
03:22 1019 30.09 848 25.04 -17.2 1.1 81 -19.7 -3.5 -16.7 -0.657
03:23 1019 30.09 848 25.04 -17 1.4 81 -19.5 -3.2 -16.59 -0.653
03:24 1019 30.09 848 25.04 -16.9 1.5 80 -19.6 -3.3 -16.53 -0.651
03:25 1019 30.09 848 25.04 -16.9 1.6 80 -19.6 -3.3 -16.51 -0.65
03:26 1019 30.09 848 25.04 -16.9 1.5 80 -19.6 -3.3 -16.53 -0.651
03:27 1019 30.09 848 25.04 -16.9 1.5 81 -19.5 -3.1 -16.53 -0.651
03:28 1019 30.09 848 25.04 -16.9 1.6 81 -19.4 -2.9 -16.45 -0.648
03:29 1019 30.09 848 25.04 -16.9 1.7 81 -19.5 -3 -16.42 -0.646
03:30 1019 30.09 848 25.04 -16.8 1.7 82 -19.2 -2.6 -16.4 -0.646
03:31 1019 30.09 848 25.04 -16.6 2.1 82 -19 -2.2 -16.18 -0.637
03:32 1019 30.09 848 25.04 -16.4 2.6 82 -18.8 -1.9 -15.96 -0.628
03:33 1019 30.09 848 25.04 -16.2 2.9 81 -18.7 -1.7 -15.75 -0.62
03:34 1019 30.09 848 25.04 -16 3.3 80 -18.6 -1.5 -15.57 -0.613
03:35 1019 30.09 848 25.04 -15.8 3.6 80 -18.6 -1.4 -15.42 -0.607
03:36 1019 30.09 848 25.04 -15.7 3.8 79 -18.6 -1.5 -15.31 -0.603
03:37 1019 30.09 848 25.04 -15.7 3.8 79 -18.6 -1.5 -15.29 -0.602
03:38 1019 30.09 848 25.04 -15.7 3.8 78 -18.6 -1.5 -15.27 -0.601
03:39 1019 30.09 848 25.04 -15.6 3.8 78 -18.6 -1.5 -15.23 -0.6
03:40 1019 30.09 848 25.04 -15.7 3.8 78 -18.7 -1.6 -15.24 -0.6
03:41 1019 30.09 848 25.04 -15.7 3.8 78 -18.6 -1.5 -15.28 -0.602
03:42 1019 30.09 848 25.04 -15.7 3.8 78 -18.6 -1.6 -15.28 -0.602
03:43 1019 30.09 848 25.04 -15.7 3.8 79 -18.5 -1.3 -15.26 -0.601
03:44 1019 30.09 848 25.04 -15.6 4 79 -18.4 -1.2 -15.21 -0.599
03:45 1019 30.09 848 25.04 -15.5 4.1 78 -18.5 -1.2 -15.13 -0.596
03:46 1019 30.09 848 25.04 -15.5 4 79 -18.4 -1.2 -15.12 -0.595
03:47 1019 30.09 848 25.04 -15.5 4.2 79 -18.3 -0.9 -15.06 -0.593
03:48 1019 30.09 848 25.04 -15.4 4.3 79 -18.3 -1 -15.01 -0.591
03:49 1019 30.09 848 25.04 -15.4 4.3 79 -18.3 -0.9 -14.96 -0.589
03:50 1019 30.09 848 25.04 -15.3 4.4 79 -18.2 -0.7 -14.9 -0.587
03:51 1019 30.09 848 25.04 -15.2 4.6 78 -18.2 -0.7 -14.85 -0.585
03:52 1019 30.09 848 25.04 -15.2 4.7 78 -18.2 -0.7 -14.81 -0.583
03:53 1019 30.09 848 25.04 -15.2 4.7 78 -18.2 -0.7 -14.78 -0.582
03:54 1019 30.09 848 25.04 -15.1 4.8 78 -18.1 -0.7 -14.74 -0.58
03:55 1019 30.09 848 25.04 -15.1 4.8 78 -18.1 -0.6 -14.73 -0.58
03:56 1019 30.09 848 25.04 -15.1 4.8 78 -18.1 -0.6 -14.67 -0.578
03:57 1019 30.09 848 25.04 -15 4.9 78 -18.1 -0.6 -14.64 -0.576
03:58 1019 30.09 848 25.04 -15 5 78 -18 -0.5 -14.64 -0.576
03:59 1019 30.09 848 25.04 -14.9 5.1 78 -18 -0.4 -14.55 -0.573
04:00 1019 30.09 848 25.04 -14.9 5.2 78 -18 -0.4 -14.55 -0.573
04:01 1019 30.09 848 25.04 -14.9 5.1 78 -18 -0.4 -14.54 -0.572
04:02 1019 30.09 848 25.04 -14.9 5.1 78 -17.9 -0.3 -14.59 -0.574
04:03 1019 30.09 848 25.04 -15 5.1 78 -18 -0.3 -14.54 -0.572
04:04 1019 30.09 848 25.04 -14.9 5.1 78 -17.9 -0.3 -14.54 -0.572
04:05 1019 30.09 848 25.04 -14.9 5.1 78 -17.9 -0.2 -14.54 -0.572
04:06 1019 30.09 848 25.04 -14.9 5.2 78 -17.9 -0.2 -14.52 -0.572
04:07 1019 30.09 848 25.04 -14.9 5.2 79 -17.8 -0.1 -14.47 -0.57
04:08 1019 30.09 848 25.04 -14.8 5.3 80 -17.6 0.3 -14.41 -0.567
04:09 1019 30.09 848 25.04 -14.7 5.6 79 -17.5 0.5 -14.35 -0.565
04:10 1019 30.09 848 25.04 -14.5 5.9 79 -17.4 0.6 -14.22 -0.56
04:11 1019 30.09 848 25.04 -14.4 6.2 78 -17.4 0.7 -14.11 -0.556
04:12 1019 30.09 848 25.04 -14.3 6.3 78 -17.4 0.7 -14.01 -0.552
04:13 1019 30.09 848 25.04 -14.2 6.4 78 -17.3 0.8 -13.91 -0.548
04:14 1019 30.09 848 25.04 -14.2 6.5 77 -17.3 0.8 -13.88 -0.546
04:15 1019 30.09 848 25.04 -14.1 6.6 77 -17.3 0.9 -13.81 -0.544
04:16 1019 30.09 848 25.04 -14.1 6.6 78 -17.2 1 -13.77 -0.542
04:17 1019 30.09 848 25.04 -14.1 6.5 78 -17.2 1 -13.8 -0.543
04:18 1019 30.09 848 25.04 -14.2 6.5 78 -17.2 1.1 -13.84 -0.545
04:19 1019 30.09 848 25.04 -14.2 6.4 78 -17.2 1 -13.82 -0.544
04:20 1019 30.09 848 25.04 -14.3 6.4 79 -17.2 1 -13.86 -0.546
04:21 1019 30.09 848 25.04 -14.3 6.3 79 -17.2 1.1 -13.88 -0.546
04:22 1019 30.09 848 25.04 -14.3 6.3 79 -17.1 1.2 -13.87 -0.546
04:23 1019 30.09 848 25.04 -14.3 6.3 79 -17.1 1.2 -13.85 -0.545
04:24 1019 30.09 848 25.04 -14.3 6.3 80 -17.1 1.3 -13.84 -0.545
04:25 1019 30.09 848 25.04 -14.2 6.4 80 -17 1.4 -13.83 -0.544
04:26 1019 30.09 848 25.04 -14.3 6.4 80 -17 1.4 -13.81 -0.544
04:27 1019 30.09 848 25.04 -14.2 6.5 80 -16.9 1.6 -13.76 -0.542
04:28 1019 30.09 848 25.04 -14.1 6.6 80 -16.8 1.7 -13.71 -0.54
04:29 1019 30.09 848 25.04 -14.1 6.6 80 -16.8 1.7 -13.71 -0.54
04:30 1019 30.09 848 25.04 -14.1 6.7 80 -16.7 1.9 -13.62 -0.536
04:31 1019 30.09 848 25.04 -14 6.7 80 -16.9 1.7 -13.63 -0.537
04:32 1019 30.09 848 25.04 -14 6.8 79 -16.9 1.5 -13.61 -0.536
04:33 1019 30.09 848 25.04 -13.9 6.9 79 -16.9 1.6 -13.54 -0.533
04:34 1019 30.09 848 25.04 -13.9 7 78 -16.9 1.6 -13.54 -0.533
04:35 1019 30.09 848 25.04 -13.9 7.1 79 -16.8 1.8 -13.45 -0.53
04:36 1019 30.09 848 25.04 -13.8 7.1 79 -16.7 1.9 -13.45 -0.53
04:37 1019 30.09 848 25.04 -13.9 7 80 -16.7 1.9 -13.48 -0.531
04:38 1019 30.09 848 25.04 -13.9 7 80 -16.7 2 -13.45 -0.53
04:39 1019 30.09 848 25.04 -13.9 7.1 80 -16.7 2 -13.46 -0.53
04:40 1019 30.09 848 25.04 -13.9 7.1 80 -16.6 2.1 -13.45 -0.53
04:41 1019 30.09 848 25.04 -13.8 7.1 80 -16.6 2.1 -13.43 -0.529
04:42 1019 30.09 848 25.04 -13.8 7.2 79 -16.6 2 -13.39 -0.527
04:43 1019 30.09 848 25.04 -13.7 7.3 79 -16.6 2.1 -13.35 -0.526
04:44 1019 30.09 848 25.04 -13.7 7.3 79 -16.6 2.1 -13.31 -0.524
04:45 1019 30.09 848 25.04 -13.8 7.2 80 -16.6 2.2 -13.33 -0.525
04:46 1019 30.09 848 25.04 -13.8 7.2 80 -16.5 2.4 -13.36 -0.526
04:47 1019 30.09 848 25.04 -13.8 7.2 80 -16.5 2.2 -13.36 -0.526
04:48 1019 30.09 848 25.04 -13.9 7.1 79 -16.7 2 -13.4 -0.528
04:49 1019 30.09 848 25.04 -13.8 7.1 79 -16.7 2 -13.4 -0.528
04:50 1019 30.09 848 25.04 -13.8 7.2 79 -16.7 2 -13.37 -0.526
04:51 1019 30.09 848 25.04 -13.8 7.2 79 -16.7 1.9 -13.35 -0.526
04:52 1019 30.09 848 25.04 -13.8 7.1 79 -16.8 1.8 -13.41 -0.528
04:53 1019 30.09 848 25.04 -14 6.8 79 -16.8 1.7 -13.58 -0.535
04:54 1019 30.09 848 25.04 -14.2 6.4 80 -17 1.3 -13.78 -0.543
04:55 1019 30.09 848 25.04 -14.5 6 80 -17.2 1.1 -14.03 -0.552
04:56 1019 30.09 848 25.04 -14.6 5.7 81 -17.2 1.1 -14.17 -0.558
04:57 1019 30.09 848 25.04 -14.7 5.5 82 -17.2 1 -14.25 -0.561
04:58 1019 30.09 848 25.04 -14.8 5.4 82 -17.2 1 -14.3 -0.563
04:59 1019 30.09 848 25.04 -14.8 5.4 82 -17.2 1.1 -14.36 -0.565
05:00 1019 30.09 848 25.04 -14.8 5.3 82 -17.2 1 -14.4 -0.567
05:01 1019 30.09 848 25.04 -14.9 5.2 82 -17.3 0.9 -14.44 -0.569
05:02 1019 30.09 848 25.04 -14.9 5.2 82 -17.3 0.9 -14.44 -0.569
05:03 1019 30.09 848 25.04 -14.9 5.1 83 -17.3 0.9 -14.45 -0.569
05:04 1019 30.09 848 25.04 -14.9 5.1 83 -17.3 0.9 -14.48 -0.57
05:05 1019 30.09 848 25.04 -14.9 5.1 83 -17.2 1 -14.47 -0.57
05:06 1019 30.09 848 25.04 -14.9 5.1 83 -17.3 0.9 -14.5 -0.571
05:07 1019 30.09 848 25.04 -15 5.1 82 -17.3 0.8 -14.51 -0.571
05:08 1019 30.09 848 25.04 -15 5 83 -17.3 0.8 -14.58 -0.574
05:09 1019 30.09 848 25.04 -15.1 4.9 82 -17.5 0.5 -14.61 -0.575
05:10 1019 30.09 848 25.04 -15.2 4.7 81 -17.8 0 -14.68 -0.578
05:11 1019 30.09 848 25.04 -15.2 4.6 81 -17.9 -0.1 -14.8 -0.583
05:12 1019 30.09 848 25.04 -15.3 4.5 81 -17.9 -0.2 -14.83 -0.584
05:13 1019 30.09 848 25.04 -15.3 4.4 81 -17.9 -0.3 -14.93 -0.588
05:14 1019 30.09 848 25.04 -15.4 4.3 81 -17.9 -0.3 -14.93 -0.588
05:15 1019 30.09 848 25.04 -15.4 4.3 81 -18 -0.4 -14.96 -0.589
05:16 1018 30.06 848 25.04 -15.4 4.3 81 -18 -0.3 -14.98 -0.59
05:17 1018 30.06 848 25.04 -15.4 4.3 81 -17.9 -0.3 -14.99 -0.59
05:18 1018 30.06 848 25.04 -15.4 4.2 81 -18 -0.3 -14.99 -0.59
05:19 1018 30.06 848 25.04 -15.4 4.2 82 -17.9 -0.2 -14.98 -0.59
05:20 1018 30.06 847 25.01 -15.4 4.3 82 -17.9 -0.1 -15 -0.591
05:21 1018 30.06 847 25.01 -15.4 4.3 82 -17.9 -0.2 -14.99 -0.59
05:22 1018 30.06 847 25.01 -15.4 4.3 81 -17.9 -0.2 -14.95 -0.589
05:23 1018 30.06 847 25.01 -15.4 4.3 81 -17.9 -0.2 -14.95 -0.589
05:24 1018 30.06 847 25.01 -15.4 4.3 82 -17.9 -0.1 -14.93 -0.588
05:25 1018 30.06 847 25.01 -15.3 4.4 82 -17.7 0.1 -14.92 -0.587
05:26 1018 30.06 847 25.01 -15.3 4.5 83 -17.6 0.3 -14.87 -0.585
05:27 1018 30.06 847 25.01 -15.3 4.5 83 -17.6 0.3 -14.86 -0.585
05:28 1018 30.06 847 25.01 -15.2 4.6 82 -17.6 0.3 -14.8 -0.583
05:29 1018 30.06 847 25.01 -15.2 4.7 82 -17.6 0.4 -14.77 -0.581
05:30 1018 30.06 847 25.01 -15.2 4.7 83 -17.5 0.5 -14.76 -0.581
05:31 1018 30.06 847 25.01 -15.2 4.7 83 -17.5 0.5 -14.75 -0.581
05:32 1018 30.06 847 25.01 -15.2 4.7 83 -17.4 0.6 -14.72 -0.58
05:33 1018 30.06 847 25.01 -15.2 4.7 83 -17.4 0.6 -14.73 -0.58
05:34 1018 30.06 847 25.01 -15.1 4.7 83 -17.4 0.7 -14.71 -0.579
05:35 1018 30.06 847 25.01 -15.1 4.8 84 -17.3 0.9 -14.68 -0.578
05:36 1018 30.06 847 25.01 -15 5 85 -17 1.3 -14.58 -0.574
05:37 1018 30.06 847 25.01 -14.9 5.1 85 -16.9 1.6 -14.43 -0.568
05:38 1018 30.06 847 25.01 -14.8 5.4 85 -16.8 1.7 -14.29 -0.563
05:39 1018 30.06 847 25.01 -14.7 5.6 84 -16.8 1.8 -14.18 -0.558
05:40 1018 30.06 847 25.01 -14.6 5.7 84 -16.8 1.8 -14.14 -0.557
05:41 1018 30.06 847 25.01 -14.5 5.8 84 -16.7 1.9 -14.13 -0.556
05:42 1018 30.06 847 25.01 -14.5 5.9 84 -16.6 2 -14.06 -0.554
05:43 1018 30.06 847 25.01 -14.4 6 84 -16.6 2.2 -13.97 -0.55
05:44 1018 30.06 847 25.01 -14.4 6.2 84 -16.5 2.2 -13.83 -0.544
05:45 1018 30.06 847 25.01 -14.2 6.4 83 -16.5 2.4 -13.74 -0.541
05:46 1018 30.06 847 25.01 -14.1 6.5 83 -16.4 2.4 -13.62 -0.536
05:47 1018 30.06 847 25.01 -14 6.8 83 -16.3 2.6 -13.56 -0.534
05:48 1018 30.06 847 25.01 -13.9 6.9 83 -16.3 2.7 -13.46 -0.53
05:49 1018 30.06 847 25.01 -13.8 7.1 83 -16.2 2.8 -13.4 -0.528
05:50 1018 30.06 847 25.01 -13.8 7.2 82 -16.2 2.8 -13.35 -0.526
05:51 1017 30.03 847 25.01 -13.7 7.4 82 -16.2 2.9 -13.28 -0.523
05:52 1017 30.03 847 25.01 -13.6 7.4 82 -16.2 2.9 -13.23 -0.521
05:53 1018 30.06 847 25.01 -13.6 7.5 82 -16.1 3 -13.19 -0.519
05:54 1018 30.06 847 25.01 -13.6 7.6 81 -16.1 3 -13.16 -0.518
05:55 1018 30.06 847 25.01 -13.5 7.7 81 -16 3.1 -13.11 -0.516
05:56 1017 30.03 847 25.01 -13.5 7.7 82 -16 3.2 -13.09 -0.515
05:57 1017 30.03 847 25.01 -13.5 7.8 81 -16 3.1 -13.02 -0.513
05:58 1017 30.03 847 25.01 -13.4 7.9 81 -16 3.1 -13 -0.512
05:59 1017 30.03 847 25.01 -13.4 7.9 80 -16.1 3.1 -12.99 -0.511
06:00 1017 30.03 847 25.01 -13.4 7.9 80 -16.1 3 -13.01 -0.512
06:01 1018 30.06 847 25.01 -13.4 7.9 80 -16.1 2.9 -12.95 -0.51
06:02 1018 30.06 847 25.01 -13.3 8 79 -16.2 2.9 -12.91 -0.508
06:03 1018 30.06 847 25.01 -13.3 8.1 79 -16.2 2.8 -12.86 -0.506
06:04 1018 30.06 847 25.01 -13.2 8.2 78 -16.3 2.6 -12.77 -0.503
06:05 1018 30.06 847 25.01 -13.1 8.4 77 -16.4 2.5 -12.7 -0.5
06:06 1018 30.06 847 25.01 -13.1 8.5 76 -16.4 2.4 -12.68 -0.499
06:07 1018 30.06 847 25.01 -13 8.5 76 -16.4 2.5 -12.62 -0.497
06:08 1018 30.06 847 25.01 -13 8.6 77 -16.3 2.7 -12.6 -0.496
06:09 1018 30.06 847 25.01 -13 8.6 76 -16.4 2.5 -12.65 -0.498
06:10 1018 30.06 847 25.01 -13 8.5 76 -16.4 2.5 -12.62 -0.497
06:11 1018 30.06 847 25.01 -13.1 8.5 76 -16.4 2.5 -12.67 -0.499
06:12 1018 30.06 847 25.01 -13.1 8.4 77 -16.3 2.7 -12.73 -0.501
06:13 1017 30.03 847 25.01 -13.2 8.3 78 -16.3 2.7 -12.78 -0.503
06:14 1018 30.06 847 25.01 -13.2 8.2 78 -16.4 2.5 -12.81 -0.504
06:15 1018 30.06 847 25.01 -13.2 8.2 78 -16.3 2.6 -12.83 -0.505
06:16 1018 30.06 847 25.01 -13.3 8.1 78 -16.3 2.6 -12.89 -0.507
06:17 1018 30.06 847 25.01 -13.3 8 78 -16.5 2.4 -12.91 -0.508
06:18 1018 30.06 847 25.01 -13.3 8 77 -16.6 2.1 -12.87 -0.507
06:19 1018 30.06 847 25.01 -13.2 8.2 75 -16.7 1.9 -12.84 -0.506
06:20 1018 30.06 847 25.01 -13.1 8.3 75 -16.8 1.8 -12.76 -0.502
06:21 1018 30.06 847 25.01 -13.2 8.3 75 -16.7 1.9 -12.77 -0.503
06:22 1018 30.06 847 25.01 -13.2 8.2 75 -16.8 1.8 -12.82 -0.505
06:23 1018 30.06 847 25.01 -13.2 8.2 75 -16.7 1.9 -12.83 -0.505
06:24 1018 30.06 847 25.01 -13.3 8.1 76 -16.7 1.9 -12.88 -0.507
06:25 1018 30.06 847 25.01 -13.3 8 76 -16.7 1.9 -12.95 -0.51
06:26 1018 30.06 847 25.01 -13.4 7.9 76 -16.8 1.8 -12.96 -0.51
06:27 1018 30.06 847 25.01 -13.3 8 76 -16.8 1.8 -12.92 -0.509
06:28 1017 30.03 847 25.01 -13.3 8.1 75 -16.7 1.9 -12.91 -0.508
06:29 1017 30.03 847 25.01 -13.2 8.3 75 -16.8 1.8 -12.81 -0.504
06:30 1017 30.03 847 25.01 -13.1 8.4 75 -16.7 1.9 -12.71 -0.5
06:31 1017 30.03 847 25.01 -13.1 8.4 75 -16.6 2 -12.71 -0.5
06:32 1017 30.03 847 25.01 -13.2 8.3 76 -16.6 2.1 -12.78 -0.503
06:33 1018 30.06 847 25.01 -13.2 8.2 76 -16.7 2 -12.84 -0.506
06:34 1018 30.06 847 25.01 -13.2 8.3 76 -16.6 2.1 -12.78 -0.503
06:35 1018 30.06 847 25.01 -13.2 8.3 75 -16.6 2 -12.75 -0.502
06:36 1018 30.06 847 25.01 -13.1 8.4 75 -16.6 2.1 -12.72 -0.501
06:37 1018 30.06 847 25.01 -13.1 8.5 75 -16.6 2.2 -12.69 -0.5
06:38 1018 30.06 847 25.01 -13.1 8.5 75 -16.6 2.2 -12.69 -0.5
06:39 1018 30.06 847 25.01 -13.1 8.5 75 -16.6 2.2 -12.65 -0.498
06:40 1017 30.03 847 25.01 -13 8.5 76 -16.5 2.3 -12.66 -0.498
06:41 1017 30.03 847 25.01 -13 8.6 75 -16.5 2.3 -12.6 -0.496
06:42 1018 30.06 847 25.01 -13 8.6 76 -16.4 2.5 -12.58 -0.495
06:43 1018 30.06 847 25.01 -12.9 8.7 76 -16.4 2.5 -12.53 -0.493
06:44 1018 30.06 847 25.01 -12.9 8.8 75 -16.4 2.5 -12.45 -0.49
06:45 1018 30.06 847 25.01 -12.8 9 76 -16.2 2.9 -12.37 -0.487
06:46 1017 30.03 847 25.01 -12.8 9 76 -16.2 2.9 -12.36 -0.487
06:47 1018 30.06 847 25.01 -12.8 9.1 76 -16.2 2.8 -12.34 -0.486
06:48 1017 30.03 847 25.01 -12.7 9.2 75 -16.3 2.7 -12.27 -0.483
06:49 1017 30.03 847 25.01 -12.6 9.3 75 -16.2 2.8 -12.17 -0.479
06:50 1017 30.03 847 25.01 -12.5 9.4 74 -16.2 2.8 -12.13 -0.478
06:51 1017 30.03 847 25.01 -12.5 9.6 75 -16.1 3.1 -12.07 -0.475
06:52 1017 30.03 847 25.01 -12.4 9.7 74 -16.2 2.9 -12.02 -0.473
06:53 1017 30.03 847 25.01 -12.3 9.8 73 -16.1 2.9 -11.94 -0.47
06:54 1017 30.03 846 24.98 -12.3 10 73 -16.2 2.8 -11.85 -0.467
06:55 1017 30.03 846 24.98 -12.2 10 72 -16.2 2.8 -11.79 -0.464
06:56 1017 30.03 846 24.98 -12.1 10.2 73 -16.1 3.1 -11.72 -0.461
06:57 1017 30.03 846 24.98 -12.1 10.3 73 -16 3.1 -11.68 -0.46
06:58 1017 30.03 846 24.98 -12 10.3 72 -16.1 3 -11.63 -0.458
06:59 1017 30.03 846 24.98 -12 10.3 71 -16.2 2.8 -11.63 -0.458
07:00 1017 30.03 846 24.98 -12 10.4 71 -16.2 2.8 -11.59 -0.456
07:01 1017 30.03 846 24.98 -12 10.5 71 -16.2 2.9 -11.56 -0.455
07:02 1017 30.03 846 24.98 -12 10.5 72 -16 3.3 -11.58 -0.456
07:03 1017 30.03 846 24.98 -12 10.5 71 -16.3 2.7 -11.56 -0.455
07:04 1017 30.03 846 24.98 -11.9 10.5 71 -16.1 2.9 -11.53 -0.454
07:05 1017 30.03 846 24.98 -11.9 10.6 71 -16.2 2.9 -11.53 -0.454
07:06 1017 30.03 846 24.98 -11.9 10.6 71 -16.2 2.8 -11.49 -0.452
07:07 1017 30.03 846 24.98 -11.9 10.6 72 -16 3.2 -11.49 -0.452
07:08 1017 30.03 846 24.98 -11.9 10.6 72 -15.9 3.3 -11.47 -0.452
07:09 1017 30.03 846 24.98 -11.9 10.5 73 -15.8 3.6 -11.48 -0.452
07:10 1017 30.03 846 24.98 -11.9 10.5 74 -15.7 3.7 -11.52 -0.454
07:11 1017 30.03 846 24.98 -12 10.5 71 -16.2 2.9 -11.58 -0.456
07:12 1017 30.03 846 24.98 -12 10.5 71 -16.2 2.9 -11.56 -0.455
07:13 1017 30.03 846 24.98 -12 10.4 70 -16.3 2.6 -11.61 -0.457
07:14 1017 30.03 846 24.98 -12 10.4 70 -16.4 2.6 -11.6 -0.457
07:15 1017 30.03 846 24.98 -11.9 10.5 70 -16.3 2.7 -11.56 -0.455
07:16 1017 30.03 846 24.98 -12 10.5 70 -16.3 2.6 -11.57 -0.456
07:17 1017 30.03 846 24.98 -12 10.4 70 -16.4 2.5 -11.6 -0.457
07:18 1017 30.03 846 24.98 -12.1 10.3 71 -16.4 2.6 -11.68 -0.46
07:19 1017 30.03 846 24.98 -12.1 10.2 71 -16.3 2.6 -11.69 -0.46
07:20 1016 30 846 24.98 -12.2 10.1 71 -16.4 2.6 -11.77 -0.463
07:21 1016 30 846 24.98 -12.2 10.1 72 -16.3 2.6 -11.83 -0.466
07:22 1016 30 846 24.98 -12.2 10 72 -16.4 2.5 -11.84 -0.466
07:23 1016 30 846 24.98 -12.2 10.1 70 -16.6 2.2 -11.87 -0.467
07:24 1016 30 846 24.98 -12.2 10.1 70 -16.6 2.1 -11.83 -0.466
07:25 1016 30 846 24.98 -12.1 10.3 70 -16.5 2.4 -11.79 -0.464
07:26 1016 30 846 24.98 -12.1 10.2 70 -16.4 2.4 -11.75 -0.463
07:27 1016 30 846 24.98 -12.1 10.3 70 -16.5 2.4 -11.72 -0.461
07:28 1016 30 846 24.98 -12 10.4 70 -16.4 2.5 -11.67 -0.459
07:29 1016 30 846 24.98 -12 10.4 70 -16.4 2.4 -11.68 -0.46
07:30 1016 30 846 24.98 -12 10.3 70 -16.5 2.4 -11.68 -0.46
07:31 1016 30 846 24.98 -12.1 10.3 69 -16.6 2.2 -11.7 -0.461
07:32 1016 30 845 24.95 -12 10.3 69 -16.7 1.9 -11.7 -0.461
07:33 1016 30 845 24.95 -12 10.3 69 -16.7 1.9 -11.75 -0.463
07:34 1016 30 845 24.95 -12.1 10.2 70 -16.5 2.2 -11.8 -0.465
07:35 1016 30 845 24.95 -12.2 10 70 -16.6 2.1 -11.89 -0.468
07:36 1016 30 845 24.95 -12.3 9.9 70 -16.7 2 -11.93 -0.47
07:37 1016 30 845 24.95 -12.3 9.8 70 -16.8 1.8 -11.97 -0.471
07:38 1016 30 845 24.95 -12.4 9.6 71 -16.7 1.9 -12.1 -0.476
07:39 1016 30 845 24.95 -12.6 9.4 72 -16.7 2 -12.12 -0.477
07:40 1016 30 845 24.95 -12.6 9.3 72 -16.7 2 -12.2 -0.48
07:41 1016 30 845 24.95 -12.7 9.2 72 -16.7 1.9 -12.28 -0.483
07:42 1016 30 845 24.95 -12.7 9.1 72 -16.7 1.9 -12.3 -0.484
07:43 1016 30 845 24.95 -12.7 9.1 72 -16.7 1.9 -12.3 -0.484
07:44 1016 30 845 24.95 -12.7 9.1 72 -16.7 1.9 -12.33 -0.485
07:45 1016 30 845 24.95 -12.7 9.1 73 -16.7 2 -12.28 -0.483
07:46 1016 30 845 24.95 -12.7 9.2 73 -16.6 2.1 -12.25 -0.482
07:47 1016 30 845 24.95 -12.6 9.3 72 -16.6 2.1 -12.21 -0.481
07:48 1016 30 845 24.95 -12.6 9.3 73 -16.5 2.4 -12.22 -0.481
07:49 1016 30 845 24.95 -12.7 9.2 74 -16.4 2.4 -12.22 -0.481
07:50 1016 30 845 24.95 -12.7 9.2 74 -16.3 2.6 -12.25 -0.482
07:51 1016 30 845 24.95 -12.7 9.1 75 -16.2 2.8 -12.3 -0.484
07:52 1016 30 845 24.95 -12.8 9.1 76 -16.2 2.9 -12.31 -0.485
07:53 1016 30 845 24.95 -12.8 9 76 -16.2 2.8 -12.35 -0.486
07:54 1016 30 845 24.95 -12.7 9.1 75 -16.2 2.8 -12.3 -0.484
07:55 1016 30 845 24.95 -12.7 9.1 75 -16.3 2.6 -12.31 -0.485
07:56 1016 30 845 24.95 -12.8 9 75 -16.4 2.5 -12.36 -0.487
07:57 1016 30 845 24.95 -12.8 9 75 -16.4 2.6 -12.39 -0.488
07:58 1016 30 845 24.95 -12.8 9 75 -16.4 2.6 -12.38 -0.487
07:59 1016 30 845 24.95 -12.8 9 75 -16.4 2.6 -12.35 -0.486
08:00 1016 30 845 24.95 -12.7 9.1 73 -16.7 1.9 -12.34 -0.486
08:01 1016 30 845 24.95 -12.9 8.8 73 -16.8 1.7 -12.51 -0.493
08:02 1016 30 845 24.95 -13 8.6 73 -16.9 1.6 -12.58 -0.495
08:03 1016 30 845 24.95 -13 8.5 74 -16.8 1.8 -12.7 -0.5
08:04 1016 30 845 24.95 -13.1 8.4 74 -16.7 1.9 -12.72 -0.501
08:05 1016 30 845 24.95 -13.1 8.4 74 -16.7 1.9 -12.69 -0.5
08:06 1016 30 845 24.95 -13.1 8.4 75 -16.7 1.9 -12.72 -0.501
08:07 1016 30 845 24.95 -13.1 8.5 75 -16.6 2.2 -12.71 -0.5
08:08 1016 30 845 24.95 -13 8.6 75 -16.6 2.1 -12.62 -0.497
08:09 1016 30 845 24.95 -12.9 8.7 74 -16.7 1.9 -12.64 -0.498
08:10 1016 30 845 24.95 -12.9 8.8 73 -16.7 1.9 -12.59 -0.496
08:11 1016 30 845 24.95 -12.9 8.8 74 -16.5 2.2 -12.54 -0.494
08:12 1016 30 845 24.95 -12.9 8.8 74 -16.6 2.1 -12.53 -0.493
08:13 1016 30 845 24.95 -13 8.7 73 -16.8 1.7 -12.6 -0.496
08:14 1016 30 845 24.95 -13 8.5 74 -16.7 1.9 -12.68 -0.499
08:15 1016 30 845 24.95 -13.1 8.3 74 -16.9 1.5 -12.76 -0.502
08:16 1016 30 845 24.95 -13.2 8.3 74 -17 1.4 -12.81 -0.504
08:17 1016 30 845 24.95 -13.2 8.3 73 -17 1.4 -12.77 -0.503
08:18 1016 30 845 24.95 -13.1 8.5 73 -17 1.4 -12.67 -0.499
08:19 1016 30 845 24.95 -13 8.7 72 -17 1.4 -12.58 -0.495
08:20 1016 30 845 24.95 -12.9 8.8 72 -17 1.5 -12.51 -0.493
08:21 1016 30 845 24.95 -12.9 8.9 71 -17 1.4 -12.45 -0.49
08:22 1016 30 845 24.95 -12.8 8.9 71 -17.1 1.2 -12.46 -0.491
08:23 1016 30 845 24.95 -12.9 8.9 70 -17.2 1.1 -12.47 -0.491
08:24 1016 30 845 24.95 -13 8.6 71 -17.2 1 -12.58 -0.495
08:25 1016 30 845 24.95 -13.1 8.5 72 -17.1 1.1 -12.63 -0.497
08:26 1016 30 845 24.95 -13 8.6 72 -17.1 1.2 -12.63 -0.497
08:27 1016 30 845 24.95 -13 8.6 72 -17.1 1.2 -12.67 -0.499
08:28 1016 30 845 24.95 -12.9 8.8 71 -17.1 1.2 -12.52 -0.493
08:29 1016 30 845 24.95 -12.9 8.8 69 -17.5 0.4 -12.59 -0.496
08:30 1016 30 845 24.95 -13.1 8.4 69 -17.6 0.3 -12.85 -0.506
08:31 1016 30 845 24.95 -13.2 8.3 69 -17.8 -0 -12.92 -0.509
08:32 1016 30 845 24.95 -13.3 8.2 69 -17.8 0 -13 -0.512
08:33 1016 30 845 24.95 -13.3 8 70 -17.7 0.2 -13.01 -0.512
08:34 1016 30 845 24.95 -13.3 8.1 66 -18.5 -1.2 -13.1 -0.516
08:35 1016 30 845 24.95 -13.9 7 65 -19 -2.3 -13.84 -0.545
08:36 1016 30 845 24.95 -14.6 5.7 65 -19.8 -3.6 -14.67 -0.578
08:37 1016 30 845 24.95 -15.1 4.8 69 -19.6 -3.3 -15.12 -0.595
08:38 1016 30 845 24.95 -15.2 4.6 68 -19.9 -3.9 -15.29 -0.602
08:39 1016 30 845 24.95 -15.6 4 68 -20.2 -4.4 -15.64 -0.616
08:40 1016 30 845 24.95 -15.9 3.4 69 -20.4 -4.7 -15.94 -0.628
08:41 1016 30 845 24.95 -16.2 2.8 69 -20.6 -5.1 -16.12 -0.635
08:42 1016 30 845 24.95 -16.5 2.3 71 -20.6 -5 -16.37 -0.644
08:43 1016 30 845 24.95 -16.5 2.3 74 -20.1 -4.2 -16.4 -0.646
08:44 1016 30 845 24.95 -16.2 2.9 74 -19.7 -3.5 -16.08 -0.633
08:45 1016 30 845 24.95 -15.8 3.5 73 -19.6 -3.3 -15.72 -0.619
08:46 1016 30 845 24.95 -15.6 4 72 -19.5 -3.1 -15.43 -0.607
08:47 1016 30 845 24.95 -15.3 4.5 72 -19.3 -2.8 -15.17 -0.597
08:48 1016 30 845 24.95 -15 5.1 71 -19.2 -2.5 -14.85 -0.585
08:49 1016 30 845 24.95 -14.6 5.6 71 -18.9 -2 -14.52 -0.572
08:50 1016 30 845 24.95 -14.3 6.3 68 -18.9 -2 -14.13 -0.556
08:51 1016 30 845 24.95 -14 6.8 68 -18.8 -1.8 -13.94 -0.549
08:52 1016 30 845 24.95 -13.9 7.1 67 -18.8 -1.8 -13.74 -0.541
08:53 1016 30 845 24.95 -13.7 7.3 66 -18.8 -1.9 -13.67 -0.538
08:54 1015 29.97 845 24.95 -13.7 7.3 65 -19 -2.3 -13.68 -0.539
08:55 1015 29.97 845 24.95 -13.8 7.1 65 -19.1 -2.3 -13.76 -0.542
08:56 1015 29.97 845 24.95 -13.8 7.1 65 -19.1 -2.4 -13.81 -0.544
08:57 1015 29.97 845 24.95 -13.9 6.9 64 -19.3 -2.7 -13.93 -0.548
08:58 1015 29.97 845 24.95 -14 6.7 65 -19.3 -2.7 -14.04 -0.553
08:59 1015 29.97 844 24.92 -14.1 6.6 66 -19.1 -2.5 -14.11 -0.556
09:00 1015 29.97 844 24.92 -13.9 6.9 69 -18.5 -1.2 -13.9 -0.547
09:01 1015 29.97 844 24.92 -13.6 7.6 65 -18.8 -1.8 -13.58 -0.535
09:02 1015 29.97 844 24.92 -13.6 7.5 64 -19 -2.2 -13.64 -0.537
09:03 1015 29.97 844 24.92 -13.8 7.2 64 -19.2 -2.5 -13.8 -0.543
09:04 1015 29.97 844 24.92 -13.9 7 67 -18.8 -1.8 -13.88 -0.546
09:05 1015 29.97 844 24.92 -13.8 7.2 67 -18.6 -1.5 -13.77 -0.542
09:06 1015 29.97 844 24.92 -13.7 7.4 66 -18.8 -1.8 -13.69 -0.539
09:07 1015 29.97 844 24.92 -13.8 7.1 65 -19.1 -2.3 -13.86 -0.546
09:08 1015 29.97 844 24.92 -14.1 6.7 67 -18.9 -2.1 -14.06 -0.554
09:09 1015 29.97 844 24.92 -14.1 6.7 68 -18.8 -1.8 -14 -0.551
09:10 1015 29.97 844 24.92 -14 6.7 66 -19.1 -2.3 -13.99 -0.551
09:11 1015 29.97 844 24.92 -14.1 6.6 68 -18.9 -2 -14.07 -0.554
09:12 1015 29.97 844 24.92 -14.1 6.5 67 -19 -2.2 -14.03 -0.552
09:13 1015 29.97 844 24.92 -14.2 6.4 68 -18.9 -2 -14.08 -0.554
09:14 1015 29.97 844 24.92 -14.2 6.5 69 -18.6 -1.5 -14.03 -0.552
09:15 1015 29.97 844 24.92 -14.1 6.6 67 -19 -2.2 -14.03 -0.552
09:16 1015 29.97 844 24.92 -14.3 6.3 69 -18.8 -1.9 -14.26 -0.561
09:17 1015 29.97 844 24.92 -14.4 6.2 67 -19.3 -2.7 -14.35 -0.565
09:18 1015 29.97 844 24.92 -14.6 5.7 67 -19.4 -3 -14.64 -0.576
09:19 1015 29.97 844 24.92 -14.9 5.2 68 -19.5 -3 -14.87 -0.585
09:20 1015 29.97 844 24.92 -15.1 4.9 68 -19.7 -3.5 -14.97 -0.589
09:21 1015 29.97 844 24.92 -15.1 4.8 71 -19.3 -2.8 -15.04 -0.592
09:22 1015 29.97 844 24.92 -15 5.1 71 -19.1 -2.5 -14.87 -0.585
09:23 1015 29.97 844 24.92 -14.9 5.3 71 -19 -2.3 -14.76 -0.581
09:24 1015 29.97 844 24.92 -14.7 5.6 73 -18.5 -1.4 -14.55 -0.573
09:25 1015 29.97 844 24.92 -14.3 6.2 73 -18.2 -0.8 -14.18 -0.558
09:26 1015 29.97 844 24.92 -14 6.8 71 -18.3 -0.9 -13.9 -0.547
09:27 1015 29.97 844 24.92 -13.8 7.2 69 -18.2 -0.8 -13.68 -0.539
09:28 1015 29.97 844 24.92 -13.7 7.4 69 -18.1 -0.6 -13.54 -0.533
09:29 1015 29.97 844 24.92 -13.5 7.7 70 -17.8 -0 -13.37 -0.526
09:30 1015 29.97 844 24.92 -13.3 8.1 71 -17.5 0.4 -13.12 -0.517
09:31 1015 29.97 844 24.92 -13.1 8.5 69 -17.6 0.2 -12.94 -0.509
09:32 1015 29.97 844 24.92 -12.9 8.7 68 -17.6 0.3 -12.8 -0.504
09:33 1015 29.97 844 24.92 -12.9 8.9 69 -17.5 0.5 -12.76 -0.502
09:34 1015 29.97 844 24.92 -12.8 9 69 -17.3 0.8 -12.67 -0.499
09:35 1015 29.97 844 24.92 -12.8 9 69 -17.3 0.8 -12.61 -0.496
09:36 1015 29.97 844 24.92 -12.7 9.2 70 -17.1 1.2 -12.48 -0.491
09:37 1015 29.97 844 24.92 -12.6 9.4 68 -17.3 0.9 -12.3 -0.484
09:38 1015 29.97 844 24.92 -12.5 9.5 69 -17.1 1.2 -12.26 -0.483
09:39 1015 29.97 844 24.92 -12.3 9.8 68 -17 1.4 -12.2 -0.48
09:40 1015 29.97 844 24.92 -12.2 10.1 67 -17.2 1.1 -12.11 -0.477
09:41 1015 29.97 844 24.92 -12.1 10.3 67 -17.1 1.2 -12.05 -0.474
09:42 1015 29.97 844 24.92 -12.1 10.3 64 -17.5 0.4 -12.15 -0.478
09:43 1015 29.97 844 24.92 -12.3 9.8 65 -17.6 0.4 -12.45 -0.49
09:44 1015 29.97 844 24.92 -12.5 9.4 65 -17.8 -0.1 -12.74 -0.502
09:45 1015 29.97 844 24.92 -12.9 8.9 66 -17.9 -0.2 -13.07 -0.515
09:46 1015 29.97 844 24.92 -13.1 8.5 68 -17.8 -0 -13.24 -0.521
09:47 1015 29.97 844 24.92 -13.2 8.2 68 -17.9 -0.2 -13.37 -0.526
09:48 1015 29.97 844 24.92 -13.4 7.8 70 -17.8 -0.1 -13.51 -0.532
09:49 1015 29.97 844 24.92 -13.4 7.8 74 -17.1 1.2 -13.41 -0.528
09:50 1015 29.97 844 24.92 -13.1 8.4 71 -17.3 0.8 -13.02 -0.513
09:51 1015 29.97 844 24.92 -13.1 8.4 68 -17.8 -0.1 -13.03 -0.513
09:52 1015 29.97 844 24.92 -13.2 8.2 70 -17.6 0.4 -13.14 -0.517
09:53 1015 29.97 844 24.92 -13.3 8.1 70 -17.7 0.1 -13.17 -0.519
09:54 1015 29.97 844 24.92 -13.3 8 71 -17.6 0.4 -13.28 -0.523
09:55 1015 29.97 844 24.92 -13.2 8.3 74 -17 1.5 -13.13 -0.517
09:56 1015 29.97 844 24.92 -12.8 8.9 71 -17 1.4 -12.72 -0.501
09:57 1015 29.97 844 24.92 -12.5 9.4 70 -17 1.5 -12.38 -0.487
09:58 1015 29.97 844 24.92 -12.5 9.5 69 -17.1 1.3 -12.18 -0.48
09:59 1015 29.97 844 24.92 -12.6 9.4 68 -17.4 0.7 -12.17 -0.479
10:00 1015 29.97 844 24.92 -12.8 9 66 -17.9 -0.2 -12.49 -0.492
10:01 1015 29.97 844 24.92 -13.1 8.4 68 -17.8 -0 -12.89 -0.507
10:02 1015 29.97 844 24.92 -13.3 8.1 71 -17.5 0.6 -13.04 -0.513
10:03 1015 29.97 844 24.92 -13.3 8.1 71 -17.5 0.5 -13.07 -0.515
10:04 1015 29.97 844 24.92 -13.2 8.2 71 -17.4 0.7 -13.01 -0.512
10:05 1015 29.97 844 24.92 -13.1 8.5 72 -17.2 1.1 -12.93 -0.509
10:06 1015 29.97 844 24.92 -12.7 9.2 72 -16.8 1.8 -12.56 -0.494
10:07 1015 29.97 844 24.92 -12.1 10.2 69 -16.8 1.8 -12 -0.472
10:08 1015 29.97 844 24.92 -11.8 10.8 67 -16.8 1.7 -11.69 -0.46
10:09 1015 29.97 844 24.92 -11.9 10.7 65 -17.2 1 -11.77 -0.463
10:10 1015 29.97 844 24.92 -12.1 10.3 66 -17.3 0.9 -12.01 -0.473
10:11 1015 29.97 844 24.92 -12.2 10 67 -17.2 1 -12.17 -0.479
10:12 1015 29.97 844 24.92 -12.2 10 68 -17 1.5 -12.1 -0.476
10:13 1015 29.97 844 24.92 -12 10.4 67 -16.9 1.6 -11.88 -0.468
10:14 1015 29.97 844 24.92 -11.7 11 67 -16.7 2 -11.59 -0.456
10:15 1014 29.94 844 24.92 -11.3 11.7 65 -16.6 2.1 -11.13 -0.438
10:16 1014 29.94 844 24.92 -11.2 11.9 63 -16.9 1.7 -10.9 -0.429
10:17 1015 29.97 844 24.92 -11.3 11.7 64 -16.8 1.7 -10.87 -0.428
10:18 1014 29.94 844 24.92 -11.4 11.5 66 -16.5 2.2 -10.81 -0.426
10:19 1014 29.94 844 24.92 -11.1 12 66 -16.3 2.6 -10.53 -0.415
10:20 1014 29.94 844 24.92 -10.8 12.6 65 -16.1 3 -10.27 -0.404
10:21 1014 29.94 844 24.92 -10.6 12.9 65 -15.9 3.3 -10.14 -0.399
10:22 1014 29.94 844 24.92 -10.5 13.2 64 -16 3.2 -10.02 -0.394
10:23 1014 29.94 844 24.92 -10.4 13.2 65 -15.9 3.4 -9.77 -0.385
10:24 1014 29.94 844 24.92 -10.2 13.6 64 -15.8 3.5 -9.57 -0.377
10:25 1014 29.94 844 24.92 -10.1 13.9 64 -15.7 3.8 -9.43 -0.371
10:26 1014 29.94 844 24.92 -9.9 14.2 64 -15.5 4.2 -9.33 -0.367
10:27 1014 29.94 844 24.92 -9.8 14.3 65 -15.3 4.5 -9.26 -0.365
10:28 1014 29.94 844 24.92 -9.8 14.4 65 -15.2 4.7 -9.17 -0.361
10:29 1014 29.94 843 24.89 -9.7 14.5 65 -15.1 4.9 -9.08 -0.357
10:30 1014 29.94 843 24.89 -9.6 14.7 65 -14.9 5.1 -9 -0.354
10:31 1014 29.94 844 24.92 -9.6 14.8 65 -14.9 5.1 -9.02 -0.355
10:32 1014 29.94 843 24.89 -9.7 14.6 65 -15.1 4.9 -8.98 -0.354
10:33 1014 29.94 844 24.92 -9.6 14.8 65 -15.1 4.9 -8.91 -0.351
10:34 1014 29.94 844 24.92 -9.3 15.2 63 -15.1 4.8 -8.72 -0.343
10:35 1014 29.94 844 24.92 -9.5 14.9 63 -15.3 4.5 -8.89 -0.35
10:36 1014 29.94 844 24.92 -9.6 14.7 64 -15.2 4.6 -9.06 -0.357
10:37 1014 29.94 844 24.92 -9.5 15 63 -15.3 4.5 -8.89 -0.35
10:38 1014 29.94 844 24.92 -9.1 15.6 62 -15.2 4.6 -8.52 -0.335
10:39 1014 29.94 843 24.89 -8.9 15.9 61 -15.3 4.5 -8.22 -0.324
10:40 1014 29.94 843 24.89 -9 15.9 61 -15.2 4.6 -8.23 -0.324
10:41 1014 29.94 843 24.89 -9.1 15.7 62 -15.1 4.9 -8.27 -0.326
10:42 1014 29.94 843 24.89 -9.2 15.5 63 -15 5 -8.42 -0.331
10:43 1014 29.94 843 24.89 -9.3 15.3 63 -15 4.9 -8.29 -0.326
10:44 1014 29.94 843 24.89 -9.1 15.7 63 -15 5 -8.02 -0.316
10:45 1014 29.94 843 24.89 -8.9 16 62 -14.9 5.1 -7.78 -0.306
10:46 1014 29.94 843 24.89 -8.9 16.1 61 -15.1 4.8 -7.81 -0.307
10:47 1014 29.94 843 24.89 -8.8 16.1 60 -15.2 4.6 -7.81 -0.307
10:48 1014 29.94 843 24.89 -8.9 16 60 -15.3 4.5 -7.73 -0.304
10:49 1014 29.94 843 24.89 -9 15.9 61 -15.2 4.6 -7.77 -0.306
10:50 1014 29.94 843 24.89 -9 15.7 62 -15.1 4.7 -7.76 -0.306
10:51 1014 29.94 843 24.89 -9 15.7 62 -15 4.9 -7.73 -0.304
10:52 1014 29.94 843 24.89 -9.2 15.4 63 -15.1 4.9 -7.87 -0.31
10:53 1014 29.94 843 24.89 -9.3 15.2 63 -15.2 4.7 -8.09 -0.319
10:54 1014 29.94 843 24.89 -9.3 15.3 62 -15.3 4.5 -8.08 -0.318
10:55 1014 29.94 843 24.89 -9.1 15.5 61 -15.3 4.4 -7.99 -0.315
10:56 1014 29.94 843 24.89 -9 15.9 61 -15.2 4.6 -7.97 -0.314
10:57 1014 29.94 843 24.89 -8.9 16 61 -15 5 -7.91 -0.311
10:58 1014 29.94 843 24.89 -8.8 16.2 62 -14.9 5.2 -7.94 -0.313
10:59 1014 29.94 843 24.89 -8.9 16 62 -14.9 5.1 -7.87 -0.31
11:00 1014 29.94 843 24.89 -8.8 16.1 62 -14.9 5.2 -7.75 -0.305
11:01 1014 29.94 843 24.89 -8.7 16.4 62 -14.7 5.5 -7.69 -0.303
11:02 1014 29.94 843 24.89 -8.5 16.6 62 -14.6 5.7 -7.65 -0.301
11:03 1013 29.91 843 24.89 -8.5 16.8 61 -14.6 5.7 -7.69 -0.303
11:04 1013 29.91 843 24.89 -8.5 16.8 61 -14.6 5.7 -7.73 -0.304
11:05 1013 29.91 843 24.89 -8.5 16.8 61 -14.6 5.7 -7.74 -0.305
11:06 1013 29.91 843 24.89 -8.4 16.9 61 -14.7 5.6 -7.75 -0.305
11:07 1013 29.91 842 24.86 -8.4 17 61 -14.7 5.5 -7.68 -0.302
11:08 1013 29.91 842 24.86 -8.2 17.2 61 -14.6 5.8 -7.6 -0.299
11:09 1013 29.91 842 24.86 -8.2 17.3 60 -14.6 5.8 -7.57 -0.298
11:10 1013 29.91 842 24.86 -8.1 17.4 60 -14.6 5.7 -7.48 -0.294
11:11 1013 29.91 842 24.86 -8 17.5 60 -14.6 5.8 -7.43 -0.293
11:12 1013 29.91 842 24.86 -8 17.6 59 -14.6 5.7 -7.37 -0.29
11:13 1013 29.91 842 24.86 -7.8 17.9 59 -14.6 5.8 -7.26 -0.286
11:14 1013 29.91 842 24.86 -7.7 18.1 58 -14.6 5.7 -7.14 -0.281
11:15 1013 29.91 842 24.86 -7.6 18.4 58 -14.6 5.8 -6.967 -0.274
11:16 1013 29.91 842 24.86 -7.5 18.6 57 -14.5 5.8 -6.853 -0.27
11:17 1013 29.91 842 24.86 -7.4 18.7 57 -14.6 5.8 -6.769 -0.266
11:18 1013 29.91 842 24.86 -7.3 18.8 57 -14.5 6 -6.701 -0.264
11:19 1013 29.91 842 24.86 -7.3 18.9 57 -14.4 6.1 -6.673 -0.263
11:20 1013 29.91 842 24.86 -7.3 18.9 58 -14.2 6.5 -6.623 -0.261
11:21 1013 29.91 842 24.86 -7.3 18.9 58 -14.1 6.5 -6.419 -0.253
11:22 1013 29.91 842 24.86 -7.2 19 58 -14.1 6.7 -6.209 -0.244
11:23 1013 29.91 842 24.86 -7.3 18.9 58 -14.3 6.3 -6.352 -0.25
11:24 1013 29.91 842 24.86 -7.2 19 57 -14.3 6.2 -6.374 -0.251
11:25 1013 29.91 842 24.86 -7.1 19.2 56 -14.4 6.1 -6.324 -0.249
11:26 1013 29.91 842 24.86 -7.1 19.2 57 -14.4 6.2 -6.256 -0.246
11:27 1013 29.91 842 24.86 -7.1 19.3 58 -14.1 6.6 -6.075 -0.239
11:28 1013 29.91 842 24.86 -7.2 19.1 58 -14.2 6.5 -5.956 -0.234
11:29 1012 29.88 842 24.86 -7.2 19 58 -14.2 6.4 -5.86 -0.231
11:30 1012 29.88 842 24.86 -7.2 19.1 57 -14.3 6.3 -5.831 -0.23
11:31 1012 29.88 842 24.86 -7.3 19 57 -14.5 6 -5.957 -0.235
11:32 1012 29.88 842 24.86 -7.3 18.8 57 -14.5 5.9 -6.247 -0.246
11:33 1012 29.88 842 24.86 -7.4 18.8 56 -14.6 5.7 -6.434 -0.253
11:34 1012 29.88 842 24.86 -7.3 18.9 56 -14.5 5.8 -6.531 -0.257
11:35 1012 29.88 841 24.83 -7.4 18.8 56 -14.6 5.7 -6.718 -0.264
11:36 1012 29.88 841 24.83 -7.4 18.8 56 -14.7 5.5 -6.792 -0.267
11:37 1012 29.88 841 24.83 -7.3 18.8 57 -14.5 5.8 -6.855 -0.27
11:38 1012 29.88 841 24.83 -7.4 18.7 57 -14.6 5.7 -6.941 -0.273
11:39 1012 29.88 841 24.83 -7.4 18.8 56 -14.7 5.6 -6.98 -0.275
11:40 1012 29.88 841 24.83 -7.2 19 56 -14.7 5.6 -6.8 -0.268
11:41 1012 29.88 841 24.83 -7 19.4 55 -14.7 5.6 -6.608 -0.26
11:42 1012 29.88 841 24.83 -6.9 19.6 54 -14.7 5.6 -6.466 -0.255
11:43 1012 29.88 841 24.83 -6.9 19.7 54 -14.7 5.5 -6.422 -0.253
11:44 1012 29.88 841 24.83 -6.8 19.8 54 -14.7 5.6 -6.337 -0.249
11:45 1012 29.88 841 24.83 -6.7 19.9 53 -14.8 5.4 -6.252 -0.246
11:46 1012 29.88 841 24.83 -6.6 20.1 53 -14.7 5.5 -6.191 -0.244
11:47 1012 29.88 841 24.83 -6.6 20.1 53 -14.8 5.4 -6.152 -0.242
11:48 1012 29.88 841 24.83 -6.6 20.1 53 -14.6 5.8 -6.146 -0.242
11:49 1012 29.88 841 24.83 -6.7 19.9 54 -14.5 5.9 -6.272 -0.247
11:50 1012 29.88 841 24.83 -6.8 19.8 54 -14.6 5.7 -6.311 -0.248
11:51 1012 29.88 841 24.83 -6.7 19.9 54 -14.6 5.7 -6.249 -0.246
11:52 1012 29.88 841 24.83 -6.6 20.1 53 -14.7 5.6 -6.187 -0.244
11:53 1012 29.88 841 24.83 -6.5 20.3 53 -14.7 5.6 -6.051 -0.238
11:54 1012 29.88 841 24.83 -6.4 20.5 52 -14.7 5.6 -5.881 -0.232
11:55 1012 29.88 841 24.83 -6.2 20.8 52 -14.6 5.6 -5.684 -0.224
11:56 1012 29.88 841 24.83 -6 21.2 50 -14.7 5.5 -5.44 -0.214
11:57 1012 29.88 841 24.83 -5.8 21.6 50 -14.8 5.4 -5.191 -0.204
11:58 1012 29.88 841 24.83 -5.7 21.8 49 -14.8 5.4 -5.021 -0.198
11:59 1012 29.88 841 24.83 -5.6 22 50 -14.4 6.1 -4.885 -0.192
12:00 1012 29.88 841 24.83 -5.6 22 54 -13.6 7.6 -4.834 -0.19
12:01 1012 29.88 841 24.83 -5.6 21.9 50 -14.4 6.1 -4.807 -0.189
12:02 1012 29.88 841 24.83 -5.6 21.9 52 -14 6.8 -4.853 -0.191
12:03 1012 29.88 841 24.83 -5.6 22 51 -14.2 6.5 -4.813 -0.189
12:04 1012 29.88 841 24.83 -5.5 22.1 50 -14.3 6.3 -4.837 -0.19
12:05 1012 29.88 841 24.83 -5.4 22.3 51 -14.1 6.6 -4.792 -0.189
12:06 1012 29.88 841 24.83 -5.4 22.3 52 -13.9 7 -4.837 -0.19
12:07 1012 29.88 841 24.83 -5.5 22.1 53 -13.6 7.6 -4.929 -0.194
12:08 1012 29.88 841 24.83 -5.6 21.9 54 -13.4 7.8 -5.07 -0.2
12:09 1012 29.88 841 24.83 -5.9 21.4 57 -13.2 8.3 -5.377 -0.212
12:10 1012 29.88 841 24.83 -6.2 20.9 59 -13 8.5 -5.666 -0.223
12:11 1012 29.88 841 24.83 -6.4 20.5 59 -13.1 8.4 -5.927 -0.233
12:12 1012 29.88 841 24.83 -6.7 19.9 62 -12.9 8.8 -6.273 -0.247
12:13 1012 29.88 841 24.83 -7 19.5 62 -13.1 8.4 -6.524 -0.257
12:14 1012 29.88 841 24.83 -7 19.4 61 -13.3 8.1 -6.648 -0.262
12:15 1012 29.88 841 24.83 -7.1 19.3 61 -13.4 7.9 -6.66 -0.262
12:16 1012 29.88 841 24.83 -7 19.3 62 -13.1 8.4 -6.672 -0.263
12:17 1012 29.88 841 24.83 -7.1 19.2 62 -13.2 8.2 -6.74 -0.265
12:18 1012 29.88 841 24.83 -7.3 18.9 62 -13.3 8 -6.905 -0.272
12:19 1012 29.88 841 24.83 -7.5 18.5 62 -13.6 7.6 -7.13 -0.281
12:20 1012 29.88 841 24.83 -7.7 18.2 62 -13.7 7.3 -7.31 -0.288
12:21 1012 29.88 841 24.83 -7.8 18 64 -13.5 7.7 -7.43 -0.293
12:22 1012 29.88 841 24.83 -7.8 17.9 65 -13.3 8.1 -7.43 -0.293
12:23 1012 29.88 841 24.83 -7.8 18 65 -13.2 8.2 -7.38 -0.291
12:24 1012 29.88 841 24.83 -7.8 17.9 65 -13.4 8 -7.39 -0.291
12:25 1012 29.88 841 24.83 -7.8 18 64 -13.5 7.8 -7.42 -0.292
12:26 1012 29.88 841 24.83 -7.8 17.9 64 -13.5 7.7 -7.42 -0.292
12:27 1012 29.88 841 24.83 -7.8 18 65 -13.2 8.2 -7.47 -0.294
12:28 1012 29.88 841 24.83 -7.8 18 62 -13.8 7.1 -7.43 -0.293
12:29 1012 29.88 841 24.83 -7.7 18.1 62 -13.9 7 -7.42 -0.292
12:30 1012 29.88 841 24.83 -7.6 18.3 61 -13.9 7 -7.38 -0.291
12:31 1012 29.88 841 24.83 -7.5 18.6 60 -13.9 7.1 -7.24 -0.285
12:32 1012 29.88 841 24.83 -7.4 18.6 57 -14.5 5.9 -7.41 -0.292
12:33 1012 29.88 841 24.83 -7.6 18.3 57 -14.7 5.6 -7.7 -0.303
12:34 1012 29.88 841 24.83 -7.6 18.3 58 -14.6 5.8 -7.78 -0.306
12:35 1012 29.88 841 24.83 -7.6 18.4 58 -14.4 6.1 -7.78 -0.306
12:36 1012 29.88 841 24.83 -7.4 18.7 59 -14.2 6.4 -7.74 -0.305
12:37 1012 29.88 841 24.83 -7.2 19.1 59 -13.9 7 -7.62 -0.3
12:38 1012 29.88 841 24.83 -7 19.4 57 -14.2 6.4 -7.5 -0.295
12:39 1012 29.88 841 24.83 -6.8 19.7 58 -13.8 7.1 -7.38 -0.291
12:40 1012 29.88 841 24.83 -6.9 19.6 56 -14.3 6.2 -7.31 -0.288
12:41 1012 29.88 841 24.83 -7 19.5 55 -14.5 6 -7.33 -0.289
12:42 1012 29.88 841 24.83 -7.3 18.9 57 -14.4 6.1 -7.42 -0.292
12:43 1012 29.88 841 24.83 -7.4 18.7 58 -14.3 6.2 -7.49 -0.295
12:44 1012 29.88 841 24.83 -7.6 18.4 60 -14 6.8 -7.54 -0.297
12:45 1012 29.88 841 24.83 -7.8 17.9 64 -13.5 7.7 -7.65 -0.301
12:46 1012 29.88 841 24.83 -8 17.6 62 -14.1 6.6 -7.76 -0.306
12:47 1012 29.88 841 24.83 -8.3 17.1 62 -14.2 6.4 -7.92 -0.312
12:48 1012 29.88 841 24.83 -8.5 16.7 64 -14 6.7 -8.07 -0.318
12:49 1012 29.88 841 24.83 -8.7 16.4 64 -14.2 6.4 -8.24 -0.324
12:50 1012 29.88 841 24.83 -8.9 16 66 -14.2 6.5 -8.39 -0.33
12:51 1012 29.88 841 24.83 -9 15.8 67 -14.1 6.6 -8.55 -0.337
12:52 1012 29.88 841 24.83 -9 15.7 66 -14.3 6.3 -8.61 -0.339
12:53 1012 29.88 841 24.83 -9.1 15.5 65 -14.6 5.7 -8.66 -0.341
12:54 1012 29.88 841 24.83 -9.2 15.5 66 -14.5 6 -8.64 -0.34
12:55 1012 29.88 841 24.83 -9.1 15.6 63 -14.9 5.2 -8.53 -0.336
12:56 1012 29.88 841 24.83 -9.1 15.5 65 -14.5 5.9 -8.58 -0.338
12:57 1012 29.88 841 24.83 -9.2 15.5 66 -14.4 6 -8.61 -0.339
12:58 1012 29.88 841 24.83 -9.1 15.6 66 -14.3 6.2 -8.59 -0.338
12:59 1012 29.88 841 24.83 -9.1 15.6 68 -14 6.8 -8.55 -0.337
13:00 1012 29.88 841 24.83 -9.1 15.5 68 -14 6.8 -8.53 -0.336
13:01 1012 29.88 841 24.83 -9.1 15.6 68 -13.9 7 -8.44 -0.332
13:02 1012 29.88 841 24.83 -9.1 15.5 68 -14.1 6.7 -8.46 -0.333
13:03 1012 29.88 841 24.83 -9.2 15.5 68 -14.1 6.7 -8.49 -0.334
13:04 1012 29.88 841 24.83 -9.2 15.5 68 -14 6.7 -8.48 -0.334
13:05 1012 29.88 841 24.83 -9.1 15.6 69 -13.8 7.1 -8.43 -0.332
13:06 1012 29.88 841 24.83 -9.1 15.6 66 -14.4 6.1 -8.42 -0.331
13:07 1012 29.88 841 24.83 -9.1 15.6 66 -14.3 6.2 -8.42 -0.331
13:08 1012 29.88 841 24.83 -9.1 15.6 65 -14.5 5.9 -8.48 -0.334
13:09 1012 29.88 841 24.83 -9.1 15.6 65 -14.5 5.9 -8.47 -0.333
13:10 1012 29.88 841 24.83 -9.1 15.6 64 -14.7 5.6 -8.48 -0.334
13:11 1012 29.88 841 24.83 -9 15.7 65 -14.5 6 -8.42 -0.331
13:12 1012 29.88 841 24.83 -9 15.8 65 -14.4 6.2 -8.31 -0.327
13:13 1012 29.88 841 24.83 -8.9 16 65 -14.3 6.3 -8.19 -0.322
13:14 1012 29.88 841 24.83 -8.8 16.1 65 -14.3 6.2 -8.12 -0.32
13:15 1012 29.88 841 24.83 -8.8 16.1 64 -14.4 6.1 -8.14 -0.32
13:16 1012 29.88 841 24.83 -8.8 16.2 64 -14.3 6.2 -8.11 -0.319
13:17 1012 29.88 841 24.83 -8.7 16.3 65 -14.2 6.4 -8.03 -0.316
13:18 1012 29.88 841 24.83 -8.6 16.4 64 -14.3 6.2 -7.96 -0.313
13:19 1012 29.88 841 24.83 -8.6 16.6 65 -14 6.9 -7.91 -0.311
13:20 1012 29.88 841 24.83 -8.4 16.9 64 -14.1 6.6 -7.72 -0.304
13:21 1012 29.88 841 24.83 -8.2 17.3 62 -14.2 6.4 -7.37 -0.29
13:22 1012 29.88 841 24.83 -7.9 17.7 61 -14.1 6.6 -7.06 -0.278
13:23 1012 29.88 841 24.83 -7.7 18.1 60 -14.2 6.4 -6.837 -0.269
13:24 1012 29.88 841 24.83 -7.6 18.2 60 -14.1 6.7 -6.741 -0.265
13:25 1012 29.88 841 24.83 -7.6 18.3 59 -14.3 6.2 -6.69 -0.263
13:26 1012 29.88 841 24.83 -7.6 18.3 60 -14.2 6.5 -6.662 -0.262
13:27 1012 29.88 841 24.83 -7.6 18.4 59 -14.2 6.4 -6.673 -0.263
13:28 1012 29.88 841 24.83 -7.5 18.4 57 -14.6 5.7 -6.667 -0.262
13:29 1012 29.88 841 24.83 -7.6 18.3 60 -14.2 6.5 -6.691 -0.263
13:30 1012 29.88 841 24.83 -7.6 18.4 60 -14.1 6.6 -6.708 -0.264
13:31 1012 29.88 841 24.83 -7.6 18.3 60 -14.2 6.5 -6.736 -0.265
13:32 1012 29.88 841 24.83 -7.7 18.1 60 -14.3 6.3 -6.856 -0.27
13:33 1012 29.88 841 24.83 -7.9 17.9 63 -13.7 7.3 -7.02 -0.276
13:34 1012 29.88 841 24.83 -7.9 17.7 63 -13.7 7.3 -7.17 -0.282
13:35 1012 29.88 841 24.83 -8 17.7 61 -14.2 6.4 -7.19 -0.283
13:36 1012 29.88 841 24.83 -7.9 17.8 60 -14.3 6.3 -7.15 -0.281
13:37 1012 29.88 841 24.83 -7.9 17.8 61 -14.1 6.6 -7.19 -0.283
13:38 1012 29.88 841 24.83 -7.9 17.8 60 -14.5 6 -7.32 -0.288
13:39 1012 29.88 841 24.83 -8 17.6 60 -14.4 6 -7.45 -0.293
13:40 1012 29.88 841 24.83 -8.1 17.5 62 -14.1 6.7 -7.51 -0.296
13:41 1012 29.88 841 24.83 -8.1 17.4 63 -14 6.9 -7.61 -0.3
13:42 1012 29.88 841 24.83 -8.3 17.1 64 -14 6.8 -7.76 -0.306
13:43 1012 29.88 841 24.83 -8.4 16.8 64 -14.1 6.6 -7.94 -0.313
13:44 1012 29.88 841 24.83 -8.6 16.6 63 -14.3 6.2 -8.16 -0.321
13:45 1012 29.88 841 24.83 -8.7 16.3 63 -14.6 5.8 -8.28 -0.326
13:46 1012 29.88 841 24.83 -8.8 16.2 63 -14.7 5.6 -8.38 -0.33
13:47 1012 29.88 841 24.83 -8.9 16 63 -14.7 5.5 -8.43 -0.332
13:48 1012 29.88 841 24.83 -8.9 15.9 64 -14.6 5.6 -8.5 -0.335
13:49 1012 29.88 841 24.83 -8.9 15.9 64 -14.6 5.8 -8.51 -0.335
13:50 1012 29.88 841 24.83 -9 15.9 65 -14.5 5.9 -8.51 -0.335
13:51 1012 29.88 841 24.83 -9 15.8 64 -14.6 5.7 -8.57 -0.337
13:52 1012 29.88 841 24.83 -9 15.8 64 -14.6 5.7 -8.62 -0.339
13:53 1012 29.88 841 24.83 -9.1 15.6 64 -14.7 5.6 -8.72 -0.343
13:54 1012 29.88 841 24.83 -9.2 15.5 64 -14.8 5.3 -8.78 -0.346
13:55 1012 29.88 841 24.83 -9.2 15.4 64 -14.8 5.4 -8.84 -0.348
13:56 1012 29.88 841 24.83 -9.3 15.3 65 -14.7 5.6 -8.93 -0.352
13:57 1012 29.88 841 24.83 -9.3 15.2 65 -14.7 5.5 -8.95 -0.352
13:58 1011 29.85 841 24.83 -9.3 15.2 65 -14.6 5.6 -8.97 -0.353
13:59 1011 29.85 841 24.83 -9.3 15.3 65 -14.7 5.6 -8.89 -0.35
14:00 1012 29.88 841 24.83 -9.3 15.4 64 -14.8 5.4 -8.85 -0.348
14:01 1012 29.88 841 24.83 -9.2 15.5 64 -14.9 5.2 -8.78 -0.346
14:02 1012 29.88 841 24.83 -9.1 15.6 64 -14.8 5.4 -8.69 -0.342
14:03 1012 29.88 841 24.83 -9.1 15.7 63 -14.9 5.2 -8.64 -0.34
14:04 1011 29.85 841 24.83 -9 15.7 62 -15 5.1 -8.65 -0.341
14:05 1011 29.85 841 24.83 -9.2 15.5 63 -14.9 5.1 -8.78 -0.346
14:06 1011 29.85 841 24.83 -9.3 15.3 64 -14.9 5.3 -8.88 -0.35
14:07 1011 29.85 841 24.83 -9.5 15 65 -14.9 5.1 -9.03 -0.356
14:08 1011 29.85 841 24.83 -9.6 14.7 64 -15.2 4.7 -9.22 -0.363
14:09 1011 29.85 841 24.83 -9.7 14.6 63 -15.4 4.2 -9.28 -0.365
14:10 1011 29.85 841 24.83 -9.7 14.6 64 -15.3 4.5 -9.24 -0.364
14:11 1011 29.85 840 24.81 -9.7 14.6 64 -15.3 4.5 -9.27 -0.365
14:12 1011 29.85 840 24.81 -9.7 14.6 64 -15.3 4.5 -9.24 -0.364
14:13 1011 29.85 840 24.81 -9.6 14.7 63 -15.3 4.4 -9.21 -0.363
14:14 1011 29.85 840 24.81 -9.6 14.7 64 -15.2 4.6 -9.22 -0.363
14:15 1011 29.85 841 24.83 -9.7 14.5 64 -15.2 4.6 -9.31 -0.367
14:16 1011 29.85 841 24.83 -9.8 14.3 65 -15.3 4.5 -9.37 -0.369
14:17 1011 29.85 841 24.83 -9.9 14.1 65 -15.3 4.4 -9.5 -0.374
14:18 1011 29.85 841 24.83 -10 14 66 -15.3 4.5 -9.55 -0.376
14:19 1011 29.85 841 24.83 -10 14.1 66 -15.3 4.5 -9.56 -0.376
14:20 1011 29.85 840 24.81 -9.9 14.2 65 -15.3 4.5 -9.45 -0.372
14:21 1011 29.85 840 24.81 -9.8 14.5 64 -15.4 4.2 -9.34 -0.368
14:22 1011 29.85 840 24.81 -9.6 14.7 63 -15.4 4.2 -9.28 -0.365
14:23 1011 29.85 840 24.81 -9.6 14.7 62 -15.5 4.1 -9.21 -0.363
14:24 1011 29.85 840 24.81 -9.6 14.8 62 -15.6 3.8 -9.15 -0.36
14:25 1011 29.85 840 24.81 -9.4 15 61 -15.7 3.8 -9.01 -0.355
14:26 1011 29.85 840 24.81 -9.3 15.3 60 -15.6 3.8 -8.88 -0.35
14:27 1011 29.85 840 24.81 -9.1 15.6 59 -15.6 3.9 -8.73 -0.344
14:28 1011 29.85 840 24.81 -9 15.8 59 -15.7 3.8 -8.6 -0.339
14:29 1011 29.85 840 24.81 -8.9 15.9 59 -15.6 3.9 -8.53 -0.336
14:30 1011 29.85 840 24.81 -8.8 16.1 58 -15.8 3.6 -8.43 -0.332
14:31 1011 29.85 841 24.83 -8.7 16.3 57 -15.7 3.7 -8.32 -0.328
14:32 1011 29.85 841 24.83 -8.7 16.4 56 -15.9 3.3 -8.29 -0.326
14:33 1011 29.85 841 24.83 -8.5 16.8 54 -16.1 3 -8.13 -0.32
14:34 1011 29.85 841 24.83 -8.3 17.2 53 -16.3 2.7 -7.91 -0.311
14:35 1011 29.85 841 24.83 -8.1 17.5 53 -16.1 3 -7.69 -0.303
14:36 1011 29.85 841 24.83 -8 17.7 53 -16 3.2 -7.55 -0.297
14:37 1011 29.85 841 24.83 -7.9 17.7 52 -16 3.1 -7.54 -0.297
14:38 1011 29.85 841 24.83 -7.8 17.9 52 -16.1 2.9 -7.45 -0.293
14:39 1011 29.85 840 24.81 -7.7 18.2 51 -16.2 2.8 -7.3 -0.287
14:40 1011 29.85 840 24.81 -7.5 18.4 51 -16.1 3.1 -7.12 -0.28
14:41 1011 29.85 840 24.81 -7.4 18.6 52 -15.8 3.6 -7.04 -0.277
14:42 1011 29.85 840 24.81 -7.4 18.6 53 -15.5 4.1 -7.03 -0.277
14:43 1011 29.85 840 24.81 -7.6 18.3 53 -15.6 3.9 -7.16 -0.282
14:44 1011 29.85 840 24.81 -7.6 18.3 51 -16 3.1 -7.18 -0.283
14:45 1011 29.85 840 24.81 -7.5 18.4 52 -15.8 3.5 -7.16 -0.282
14:46 1011 29.85 840 24.81 -7.5 18.4 52 -15.8 3.6 -7.14 -0.281
14:47 1011 29.85 840 24.81 -7.5 18.5 53 -15.5 4 -7.08 -0.279
14:48 1011 29.85 840 24.81 -7.7 18.2 53 -15.6 3.9 -7.12 -0.28
14:49 1011 29.85 840 24.81 -7.8 17.9 55 -15.4 4.2 -7.26 -0.286
14:50 1011 29.85 840 24.81 -7.9 17.9 54 -15.7 3.8 -7.29 -0.287
14:51 1011 29.85 840 24.81 -7.8 18 54 -15.6 3.9 -7.3 -0.287
14:52 1011 29.85 840 24.81 -7.8 17.9 54 -15.5 4 -7.26 -0.286
14:53 1011 29.85 840 24.81 -7.8 17.9 53 -15.9 3.3 -7.29 -0.287
14:54 1011 29.85 840 24.81 -7.7 18.1 53 -15.7 3.7 -7.25 -0.285
14:55 1011 29.85 840 24.81 -7.8 18 52 -16.1 3.1 -7.31 -0.288
14:56 1011 29.85 840 24.81 -7.7 18.1 51 -16.2 2.9 -7.31 -0.288
14:57 1011 29.85 840 24.81 -7.6 18.3 50 -16.3 2.7 -7.24 -0.285
14:58 1011 29.85 840 24.81 -7.6 18.4 50 -16.3 2.6 -7.14 -0.281
14:59 1011 29.85 840 24.81 -7.5 18.5 50 -16.2 2.9 -7.14 -0.281
15:00 1011 29.85 840 24.81 -7.6 18.4 51 -16.2 2.9 -7.21 -0.284
15:01 1011 29.85 840 24.81 -7.7 18.2 50 -16.5 2.3 -7.32 -0.288
15:02 1011 29.85 840 24.81 -7.6 18.3 48 -16.9 1.6 -7.24 -0.285
15:03 1011 29.85 840 24.81 -7.4 18.7 46 -17 1.4 -7.04 -0.277
15:04 1011 29.85 840 24.81 -7.2 19.1 46 -17 1.5 -6.797 -0.268
15:05 1011 29.85 840 24.81 -7 19.3 46 -16.8 1.8 -6.695 -0.264
15:06 1011 29.85 840 24.81 -7 19.4 47 -16.6 2.1 -6.588 -0.259
15:07 1011 29.85 840 24.81 -7 19.4 46 -16.7 2 -6.588 -0.259
15:08 1011 29.85 840 24.81 -7 19.4 47 -16.5 2.3 -6.605 -0.26
15:09 1011 29.85 840 24.81 -7 19.3 48 -16.4 2.5 -6.644 -0.262
15:10 1011 29.85 840 24.81 -7.1 19.3 48 -16.3 2.6 -6.684 -0.263
15:11 1011 29.85 840 24.81 -7.1 19.2 48 -16.4 2.4 -6.695 -0.264
15:12 1011 29.85 840 24.81 -7.1 19.2 48 -16.5 2.3 -6.758 -0.266
15:13 1011 29.85 840 24.81 -7.1 19.2 47 -16.7 1.9 -6.724 -0.265
15:14 1011 29.85 840 24.81 -7.1 19.3 47 -16.7 1.9 -6.695 -0.264
15:15 1011 29.85 840 24.81 -7.1 19.3 46 -16.7 1.9 -6.667 -0.262
15:16 1011 29.85 840 24.81 -7.2 19.1 47 -16.6 2.1 -6.724 -0.265
15:17 1011 29.85 840 24.81 -7.3 18.9 48 -16.4 2.4 -6.893 -0.271
15:18 1011 29.85 840 24.81 -7.5 18.6 48 -16.8 1.8 -7.04 -0.277
15:19 1011 29.85 840 24.81 -7.5 18.6 47 -16.9 1.6 -7.04 -0.277
15:20 1011 29.85 840 24.81 -7.4 18.7 47 -16.8 1.8 -7.04 -0.277
15:21 1011 29.85 840 24.81 -7.4 18.7 48 -16.7 1.9 -6.99 -0.275
15:22 1011 29.85 840 24.81 -7.5 18.6 48 -16.7 2 -7.06 -0.278
15:23 1011 29.85 840 24.81 -7.6 18.3 49 -16.6 2.1 -7.2 -0.283
15:24 1011 29.85 840 24.81 -7.8 18 50 -16.6 2.1 -7.37 -0.29
15:25 1011 29.85 840 24.81 -7.8 17.9 49 -16.7 1.9 -7.44 -0.293
15:26 1011 29.85 840 24.81 -7.8 18 49 -16.7 1.9 -7.35 -0.289
15:27 1011 29.85 840 24.81 -7.7 18.1 49 -16.7 1.9 -7.37 -0.29
15:28 1011 29.85 840 24.81 -7.8 17.9 49 -16.7 2 -7.41 -0.292
15:29 1011 29.85 840 24.81 -8 17.7 50 -16.7 2 -7.53 -0.296
15:30 1011 29.85 840 24.81 -8.1 17.5 50 -16.7 2 -7.66 -0.302
15:31 1011 29.85 840 24.81 -8.1 17.4 51 -16.6 2.1 -7.73 -0.304
15:32 1011 29.85 840 24.81 -8.1 17.4 50 -16.7 1.9 -7.71 -0.304
15:33 1011 29.85 840 24.81 -8 17.6 50 -16.6 2.1 -7.63 -0.3
15:34 1011 29.85 840 24.81 -8 17.7 50 -16.6 2.2 -7.65 -0.301
15:35 1011 29.85 840 24.81 -8.3 17.1 51 -16.8 1.7 -7.93 -0.312
15:36 1011 29.85 840 24.81 -8.8 16.2 51 -17.1 1.1 -8.44 -0.332
15:37 1011 29.85 840 24.81 -9.5 15 56 -16.7 1.9 -9.14 -0.36
15:38 1011 29.85 840 24.81 -9.4 15 57 -16.5 2.2 -9.14 -0.36
15:39 1011 29.85 840 24.81 -9 15.8 54 -16.6 2.1 -8.75 -0.344
15:40 1011 29.85 840 24.81 -8.7 16.3 54 -16.5 2.4 -8.44 -0.332
15:41 1011 29.85 840 24.81 -8.4 16.9 53 -16.5 2.3 -8.14 -0.32
15:42 1011 29.85 840 24.81 -8.3 17.1 51 -16.6 2.1 -7.93 -0.312
15:43 1011 29.85 840 24.81 -8.2 17.2 51 -16.6 2.2 -7.92 -0.312
15:44 1011 29.85 840 24.81 -8.2 17.3 52 -16.5 2.4 -7.82 -0.308
15:45 1011 29.85 840 24.81 -8 17.6 51 -16.5 2.4 -7.71 -0.304
15:46 1011 29.85 840 24.81 -8 17.6 50 -16.8 1.8 -7.74 -0.305
15:47 1011 29.85 840 24.81 -8.2 17.2 51 -16.7 1.9 -7.91 -0.311
15:48 1011 29.85 840 24.81 -8.3 17.1 51 -16.6 2.1 -8 -0.315
15:49 1011 29.85 840 24.81 -8.2 17.3 51 -16.5 2.2 -7.87 -0.31
15:50 1011 29.85 840 24.81 -8 17.7 50 -16.6 2.1 -7.66 -0.302
15:51 1011 29.85 840 24.81 -7.9 17.7 50 -16.7 1.9 -7.57 -0.298
15:52 1011 29.85 840 24.81 -8 17.6 50 -16.8 1.8 -7.68 -0.302
15:53 1011 29.85 840 24.81 -8.2 17.3 50 -16.8 1.8 -7.91 -0.311
15:54 1011 29.85 840 24.81 -8.3 17.1 51 -16.8 1.7 -7.97 -0.314
15:55 1011 29.85 840 24.81 -8.3 17 51 -16.7 2 -8.01 -0.315
15:56 1011 29.85 840 24.81 -8.4 16.8 51 -16.9 1.6 -8.09 -0.319
15:57 1011 29.85 840 24.81 -8.8 16.1 53 -16.7 1.9 -8.49 -0.334
15:58 1011 29.85 840 24.81 -9.2 15.4 55 -16.8 1.8 -8.92 -0.351
15:59 1011 29.85 840 24.81 -9.3 15.3 56 -16.6 2.2 -9.05 -0.356
16:00 1011 29.85 840 24.81 -8.9 16 54 -16.7 2 -8.61 -0.339
16:01 1011 29.85 840 24.81 -8.6 16.6 53 -16.5 2.3 -8.33 -0.328
16:02 1011 29.85 840 24.81 -8.5 16.7 52 -16.7 1.9 -8.23 -0.324
16:03 1011 29.85 840 24.81 -8.7 16.3 54 -16.5 2.2 -8.42 -0.331
16:04 1011 29.85 840 24.81 -9.3 15.4 57 -16.4 2.5 -8.95 -0.352
16:05 1011 29.85 840 24.81 -9.9 14.1 60 -16.3 2.7 -9.54 -0.376
16:06 1011 29.85 840 24.81 -10.3 13.4 63 -16.2 2.9 -9.94 -0.391
16:07 1011 29.85 840 24.81 -10.5 13.2 63 -16.3 2.7 -10.1 -0.398
16:08 1011 29.85 840 24.81 -10.1 13.9 60 -16.5 2.3 -9.75 -0.384
16:09 1011 29.85 840 24.81 -9.6 14.8 61 -15.7 3.7 -9.3 -0.366
16:10 1011 29.85 840 24.81 -9.5 14.9 61 -15.6 3.9 -9.17 -0.361
16:11 1011 29.85 840 24.81 -9.4 15.1 61 -15.6 4 -9.02 -0.355
16:12 1011 29.85 840 24.81 -9.3 15.3 61 -15.6 4 -8.97 -0.353
16:13 1011 29.85 840 24.81 -9.1 15.5 60 -15.5 4.1 -8.87 -0.349
16:14 1011 29.85 840 24.81 -9 15.8 61 -15.2 4.6 -8.74 -0.344
16:15 1011 29.85 840 24.81 -9.1 15.7 63 -14.9 5.2 -8.75 -0.344
16:16 1011 29.85 840 24.81 -9.2 15.4 64 -14.8 5.4 -8.88 -0.35
16:17 1011 29.85 840 24.81 -9.4 15.1 66 -14.6 5.7 -9.02 -0.355
16:18 1011 29.85 840 24.81 -9.5 15 67 -14.5 6 -9.1 -0.358
16:19 1011 29.85 840 24.81 -9.4 15.1 68 -14.3 6.2 -9.02 -0.355
16:20 1011 29.85 840 24.81 -9.4 15.2 68 -14.2 6.5 -9 -0.354
16:21 1011 29.85 840 24.81 -9.5 15 70 -14 6.9 -8.99 -0.354
16:22 1011 29.85 840 24.81 -9.5 14.9 69 -14.2 6.5 -9.03 -0.356
16:23 1011 29.85 840 24.81 -9.3 15.3 67 -14.4 6.1 -8.86 -0.349
16:24 1011 29.85 840 24.81 -8.9 16 63 -14.7 5.5 -8.5 -0.335
16:25 1011 29.85 840 24.81 -8.5 16.8 62 -14.5 5.8 -8.08 -0.318
16:26 1011 29.85 840 24.81 -8.3 17.1 61 -14.4 6.1 -7.86 -0.309
16:27 1011 29.85 840 24.81 -8.2 17.3 64 -13.9 7 -7.77 -0.306
16:28 1011 29.85 840 24.81 -8.4 16.9 65 -13.9 7 -7.98 -0.314
16:29 1011 29.85 840 24.81 -8.2 17.2 61 -14.5 6 -7.87 -0.31
16:30 1011 29.85 840 24.81 -7.8 18 55 -15.2 4.6 -7.44 -0.293
16:31 1011 29.85 840 24.81 -7.3 18.9 53 -15.3 4.4 -6.941 -0.273
16:32 1011 29.85 840 24.81 -6.8 19.7 51 -15.3 4.5 -6.521 -0.257
16:33 1011 29.85 840 24.81 -6.6 20.1 54 -14.5 6 -6.272 -0.247
16:34 1011 29.85 840 24.81 -6.9 19.6 58 -13.7 7.3 -6.481 -0.255
16:35 1011 29.85 840 24.81 -7.3 18.9 62 -13.5 7.7 -6.833 -0.269
16:36 1011 29.85 840 24.81 -7.6 18.3 64 -13.4 7.9 -7.12 -0.28
16:37 1011 29.85 840 24.81 -7.8 18 65 -13.3 8 -7.33 -0.289
16:38 1011 29.85 840 24.81 -8 17.7 65 -13.4 8 -7.47 -0.294
16:39 1011 29.85 840 24.81 -8.1 17.5 66 -13.3 8.1 -7.59 -0.299
16:40 1011 29.85 840 24.81 -8.2 17.2 67 -13.4 7.9 -7.68 -0.302
16:41 1011 29.85 840 24.81 -8.2 17.3 66 -13.5 7.7 -7.74 -0.305
16:42 1011 29.85 840 24.81 -8.1 17.5 65 -13.6 7.6 -7.7 -0.303
16:43 1011 29.85 840 24.81 -7.9 17.7 64 -13.7 7.3 -7.56 -0.298
16:44 1011 29.85 840 24.81 -7.8 18 65 -13.4 7.9 -7.41 -0.292
16:45 1011 29.85 840 24.81 -7.8 18 65 -13.4 8 -7.42 -0.292
16:46 1011 29.85 840 24.81 -7.8 18 64 -13.4 7.8 -7.37 -0.29
16:47 1011 29.85 840 24.81 -7.7 18.1 63 -13.5 7.6 -7.34 -0.289
16:48 1011 29.85 840 24.81 -7.6 18.3 63 -13.6 7.6 -7.27 -0.286
16:49 1011 29.85 840 24.81 -7.5 18.5 61 -13.7 7.3 -7.13 -0.281
16:50 1011 29.85 840 24.81 -7.3 18.8 60 -13.9 7 -6.945 -0.273
16:51 1011 29.85 840 24.81 -7 19.3 58 -14 6.8 -6.734 -0.265
16:52 1011 29.85 840 24.81 -6.8 19.8 58 -13.8 7.1 -6.428 -0.253
16:53 1011 29.85 840 24.81 -6.7 19.9 57 -13.8 7.1 -6.366 -0.251
16:54 1011 29.85 840 24.81 -6.7 20 57 -13.7 7.3 -6.315 -0.249
16:55 1011 29.85 840 24.81 -6.7 19.9 59 -13.4 7.8 -6.366 -0.251
16:56 1011 29.85 840 24.81 -6.9 19.6 60 -13.3 8 -6.485 -0.255
16:57 1011 29.85 840 24.81 -6.9 19.5 59 -13.6 7.5 -6.553 -0.258
16:58 1011 29.85 840 24.81 -6.9 19.6 65 -12.4 9.7 -6.547 -0.258
16:59 1011 29.85 840 24.81 -7.2 19 66 -12.6 9.3 -6.734 -0.265
17:00 1011 29.85 840 24.81 -7.5 18.6 67 -12.5 9.5 -7.03 -0.277
17:01 1011 29.85 840 24.81 -7.6 18.3 70 -12.2 10.1 -7.19 -0.283
17:02 1011 29.85 841 24.83 -7.7 18.1 71 -12.2 10 -7.28 -0.287
17:03 1011 29.85 841 24.83 -7.8 18 71 -12.2 10 -7.35 -0.289
17:04 1011 29.85 840 24.81 -7.7 18.1 69 -12.4 9.7 -7.37 -0.29
17:05 1011 29.85 840 24.81 -7.7 18.2 69 -12.3 9.8 -7.25 -0.285
17:06 1011 29.85 840 24.81 -7.6 18.3 70 -12.1 10.2 -7.22 -0.284
17:07 1011 29.85 840 24.81 -7.6 18.3 69 -12.4 9.6 -7.22 -0.284
17:08 1011 29.85 840 24.81 -7.6 18.3 69 -12.3 9.9 -7.19 -0.283
17:09 1011 29.85 840 24.81 -7.6 18.3 68 -12.6 9.4 -7.2 -0.283
17:10 1011 29.85 840 24.81 -7.6 18.4 68 -12.6 9.4 -7.16 -0.282
17:11 1011 29.85 840 24.81 -7.5 18.5 69 -12.4 9.8 -7.14 -0.281
17:12 1011 29.85 841 24.83 -7.6 18.4 71 -12 10.5 -7.1 -0.28
17:13 1011 29.85 841 24.83 -7.6 18.3 71 -11.9 10.5 -7.19 -0.283
17:14 1011 29.85 841 24.83 -7.7 18.2 72 -11.9 10.5 -7.24 -0.285
17:15 1011 29.85 841 24.83 -7.7 18.2 71 -12 10.4 -7.24 -0.285
17:16 1011 29.85 840 24.81 -7.7 18.1 74 -11.6 11.1 -7.26 -0.286
17:17 1011 29.85 840 24.81 -7.8 17.9 74 -11.7 10.9 -7.36 -0.29
17:18 1011 29.85 840 24.81 -8 17.7 75 -11.7 10.9 -7.48 -0.294
17:19 1011 29.85 840 24.81 -7.9 17.8 75 -11.6 11.2 -7.44 -0.293
17:20 1011 29.85 840 24.81 -7.9 17.8 77 -11.3 11.6 -7.43 -0.293
17:21 1011 29.85 841 24.83 -7.9 17.7 76 -11.4 11.5 -7.44 -0.293
17:22 1011 29.85 841 24.83 -7.8 17.9 76 -11.3 11.6 -7.4 -0.291
17:23 1011 29.85 841 24.83 -7.8 17.9 75 -11.5 11.3 -7.33 -0.289
17:24 1011 29.85 841 24.83 -7.7 18.1 75 -11.5 11.3 -7.29 -0.287
17:25 1011 29.85 841 24.83 -7.7 18.2 72 -11.9 10.6 -7.22 -0.284
17:26 1012 29.88 841 24.83 -7.6 18.4 71 -12 10.3 -7.08 -0.279
17:27 1012 29.88 841 24.83 -7.4 18.7 71 -11.9 10.6 -6.971 -0.274
17:28 1012 29.88 841 24.83 -7.3 18.8 71 -11.7 11 -6.914 -0.272
17:29 1011 29.85 841 24.83 -7.3 18.9 71 -11.6 11 -6.88 -0.271
17:30 1011 29.85 841 24.83 -7.3 18.9 71 -11.8 10.8 -6.869 -0.27
17:31 1011 29.85 841 24.83 -7.3 18.9 70 -11.8 10.7 -6.824 -0.269
17:32 1011 29.85 841 24.83 -7.2 19 71 -11.7 11 -6.829 -0.269
17:33 1011 29.85 841 24.83 -7.2 19.1 70 -11.7 10.9 -6.812 -0.268
17:34 1011 29.85 841 24.83 -7.2 19.1 69 -11.9 10.5 -6.789 -0.267
17:35 1011 29.85 841 24.83 -7.1 19.2 68 -12 10.4 -6.721 -0.265
17:36 1011 29.85 841 24.83 -7 19.4 68 -11.9 10.5 -6.687 -0.263
17:37 1011 29.85 841 24.83 -7 19.4 68 -11.9 10.6 -6.665 -0.262
17:38 1011 29.85 841 24.83 -7 19.4 68 -11.9 10.7 -6.603 -0.26
17:39 1011 29.85 841 24.83 -6.9 19.5 69 -11.7 10.9 -6.552 -0.258
17:40 1011 29.85 841 24.83 -6.9 19.5 69 -11.8 10.8 -6.518 -0.257
17:41 1011 29.85 841 24.83 -6.9 19.6 68 -11.8 10.8 -6.478 -0.255
17:42 1011 29.85 841 24.83 -6.8 19.7 68 -11.8 10.8 -6.467 -0.255
17:43 1011 29.85 841 24.83 -6.8 19.7 68 -11.8 10.7 -6.45 -0.254
17:44 1011 29.85 841 24.83 -6.8 19.8 67 -11.8 10.7 -6.416 -0.253
17:45 1011 29.85 841 24.83 -6.8 19.8 68 -11.8 10.8 -6.405 -0.252
17:46 1011 29.85 841 24.83 -6.8 19.8 66 -12 10.3 -6.399 -0.252
17:47 1011 29.85 841 24.83 -6.6 20 65 -12.2 10 -6.292 -0.248
17:48 1011 29.85 841 24.83 -6.6 20.1 65 -12.2 10 -6.212 -0.245
17:49 1011 29.85 841 24.83 -6.6 20.2 67 -11.7 11 -6.201 -0.244
17:50 1011 29.85 841 24.83 -6.7 20 66 -12 10.5 -6.281 -0.247
17:51 1011 29.85 841 24.83 -6.7 19.9 67 -11.8 10.7 -6.36 -0.25
17:52 1011 29.85 841 24.83 -6.8 19.8 69 -11.5 11.2 -6.4 -0.252
17:53 1011 29.85 841 24.83 -6.8 19.7 64 -12.6 9.4 -6.445 -0.254
17:54 1011 29.85 841 24.83 -6.7 20 63 -12.6 9.4 -6.349 -0.25
17:55 1012 29.88 841 24.83 -6.6 20.1 66 -11.9 10.5 -6.224 -0.245
17:56 1012 29.88 841 24.83 -6.6 20.1 67 -11.7 10.9 -6.241 -0.246
17:57 1012 29.88 841 24.83 -6.7 19.9 70 -11.3 11.7 -6.27 -0.247
17:58 1012 29.88 841 24.83 -6.8 19.8 65 -12.4 9.7 -6.326 -0.249
17:59 1011 29.85 841 24.83 -6.6 20.1 61 -13 8.6 -6.275 -0.247
18:00 1012 29.88 841 24.83 -6.5 20.3 68 -11.5 11.3 -6.185 -0.244
18:01 1011 29.85 841 24.83 -6.6 20.1 71 -11.1 12.1 -6.179 -0.243
18:02 1011 29.85 841 24.83 -6.7 20 59 -13.4 7.9 -6.253 -0.246
18:03 1011 29.85 841 24.83 -6.1 21 65 -11.7 11 -5.726 -0.225
18:04 1011 29.85 841 24.83 -6.2 20.8 61 -12.6 9.3 -5.765 -0.227
18:05 1011 29.85 841 24.83 -6 21.1 62 -12.1 10.2 -5.731 -0.226
18:06 1011 29.85 841 24.83 -5.8 21.6 56 -13.3 8.1 -5.471 -0.215
18:07 1011 29.85 841 24.83 -5.7 21.8 59 -12.6 9.4 -5.34 -0.21
18:08 1011 29.85 841 24.83 -5.7 21.7 60 -12.4 9.7 -5.335 -0.21
18:09 1011 29.85 841 24.83 -5.8 21.6 62 -12 10.4 -5.357 -0.211
18:10 1011 29.85 841 24.83 -5.6 21.9 54 -13.4 7.8 -5.244 -0.206
18:11 1011 29.85 840 24.81 -4.8 23.3 51 -13.6 7.6 -4.518 -0.178
18:12 1011 29.85 841 24.83 -4.1 24.5 48 -13.6 7.5 -3.799 -0.15
18:13 1011 29.85 841 24.83 -4.2 24.4 51 -12.9 8.8 -3.81 -0.15
18:14 1011 29.85 841 24.83 -4.6 23.7 53 -12.7 9.1 -4.19 -0.165
18:15 1011 29.85 840 24.81 -5 23 56 -12.5 9.5 -4.524 -0.178
18:16 1011 29.85 840 24.81 -4.7 23.6 60 -11.3 11.6 -4.292 -0.169
18:17 1011 29.85 840 24.81 -4 24.9 58 -11.1 12.1 -3.572 -0.141
18:18 1011 29.85 840 24.81 -3.4 25.9 53 -11.6 11.2 -2.954 -0.116
18:19 1011 29.85 840 24.81 -3 26.6 51 -11.7 11 -2.642 -0.104
18:20 1011 29.85 840 24.81 -2.8 26.9 53 -11.2 11.8 -2.478 -0.098
18:21 1011 29.85 841 24.83 -2.8 27 55 -10.6 12.9 -2.342 -0.092
18:22 1011 29.85 841 24.83 -2.9 26.8 54 -11 12.3 -2.444 -0.096
18:23 1012 29.88 841 24.83 -3.1 26.4 57 -10.6 13 -2.744 -0.108
18:24 1012 29.88 841 24.83 -3.5 25.6 52 -11.9 10.5 -3.101 -0.122
18:25 1012 29.88 841 24.83 -4 24.7 55 -11.8 10.8 -3.799 -0.15
18:26 1012 29.88 841 24.83 -4.6 23.8 55 -12.2 10.1 -4.32 -0.17
18:27 1012 29.88 841 24.83 -5 23.1 57 -12.2 10 -4.717 -0.186
18:28 1012 29.88 841 24.83 -5.3 22.5 58 -12.4 9.7 -5 -0.197
18:29 1012 29.88 841 24.83 -5.5 22.1 57 -12.7 9.2 -5.153 -0.203
18:30 1012 29.88 841 24.83 -5.7 21.8 58 -12.8 9 -5.301 -0.209
18:31 1012 29.88 841 24.83 -5.8 21.6 59 -12.6 9.4 -5.421 -0.213
18:32 1012 29.88 841 24.83 -5.9 21.4 59 -12.7 9.1 -5.483 -0.216
18:33 1012 29.88 841 24.83 -5.9 21.4 57 -13.2 8.2 -5.551 -0.219
18:34 1012 29.88 841 24.83 -5.9 21.4 58 -12.9 8.7 -5.416 -0.213
18:35 1012 29.88 841 24.83 -5.9 21.4 61 -12.2 10.1 -5.41 -0.213
18:36 1012 29.88 841 24.83 -6 21.1 63 -11.9 10.6 -5.558 -0.219
18:37 1012 29.88 841 24.83 -6.2 20.8 63 -12.1 10.2 -5.774 -0.227
18:38 1012 29.88 841 24.83 -6.4 20.5 63 -12.4 9.7 -5.927 -0.233
18:39 1012 29.88 841 24.83 -6.5 20.4 59 -13.2 8.2 -6.006 -0.236
18:40 1012 29.88 841 24.83 -6.5 20.4 62 -12.6 9.4 -6.007 -0.236
18:41 1012 29.88 841 24.83 -6.4 20.4 62 -12.6 9.3 -5.962 -0.235
18:42 1012 29.88 841 24.83 -6.5 20.4 59 -13.3 8.1 -5.996 -0.236
18:43 1012 29.88 841 24.83 -6.4 20.4 59 -13.2 8.3 -6.03 -0.237
18:44 1012 29.88 841 24.83 -6.4 20.5 58 -13.3 8.1 -6.002 -0.236
18:45 1012 29.88 841 24.83 -6.4 20.5 59 -13.1 8.4 -6.008 -0.237
18:46 1012 29.88 841 24.83 -6.4 20.4 60 -13 8.6 -5.996 -0.236
18:47 1012 29.88 841 24.83 -6.4 20.5 59 -13.1 8.5 -6.025 -0.237
18:48 1012 29.88 841 24.83 -6.4 20.5 60 -13 8.7 -6.014 -0.237
18:49 1012 29.88 841 24.83 -6.5 20.4 61 -12.8 9 -6.014 -0.237
18:50 1012 29.88 841 24.83 -6.5 20.3 63 -12.5 9.4 -6.121 -0.241
18:51 1012 29.88 841 24.83 -6.7 20 63 -12.6 9.3 -6.156 -0.242
18:52 1012 29.88 841 24.83 -6.7 19.9 62 -12.9 8.7 -6.292 -0.248
18:53 1012 29.88 841 24.83 -6.8 19.8 59 -13.6 7.6 -6.354 -0.25
18:54 1012 29.88 841 24.83 -6.6 20 61 -13.1 8.5 -6.258 -0.246
18:55 1012 29.88 841 24.83 -6.7 20 62 -12.7 9.1 -6.281 -0.247
18:56 1012 29.88 841 24.83 -6.8 19.7 63 -12.7 9.1 -6.354 -0.25
18:57 1012 29.88 841 24.83 -6.9 19.5 63 -12.8 9 -6.473 -0.255
18:58 1012 29.88 841 24.83 -7 19.5 63 -12.9 8.7 -6.541 -0.258
18:59 1012 29.88 841 24.83 -6.9 19.6 62 -12.9 8.7 -6.507 -0.256
19:00 1012 29.88 841 24.83 -6.9 19.6 63 -12.8 8.9 -6.485 -0.255
19:01 1012 29.88 841 24.83 -7 19.5 64 -12.7 9.1 -6.547 -0.258
19:02 1012 29.88 841 24.83 -7.2 19.1 65 -12.7 9.1 -6.706 -0.264
19:03 1012 29.88 841 24.83 -7.3 18.8 65 -12.8 8.9 -6.848 -0.27
19:04 1012 29.88 841 24.83 -7.3 18.9 65 -12.8 8.9 -6.882 -0.271
19:05 1012 29.88 841 24.83 -7.2 19.1 65 -12.8 9 -6.819 -0.268
19:06 1012 29.88 841 24.83 -7.1 19.2 64 -12.9 8.8 -6.763 -0.266
19:07 1012 29.88 841 24.83 -7.1 19.2 64 -12.9 8.9 -6.706 -0.264
19:08 1012 29.88 841 24.83 -7.3 18.9 65 -12.9 8.9 -6.859 -0.27
19:09 1012 29.88 841 24.83 -7.4 18.8 65 -12.9 8.8 -6.944 -0.273
19:10 1012 29.88 841 24.83 -7.3 18.8 65 -12.8 8.9 -6.967 -0.274
19:11 1012 29.88 841 24.83 -7.4 18.8 65 -12.8 8.9 -6.944 -0.273
19:12 1012 29.88 841 24.83 -7.4 18.7 65 -12.8 8.9 -6.967 -0.274
19:13 1012 29.88 841 24.83 -7.4 18.7 65 -12.8 9 -6.95 -0.274
19:14 1012 29.88 841 24.83 -7.3 18.8 65 -12.7 9.1 -6.938 -0.273
19:15 1012 29.88 841 24.83 -7.4 18.8 65 -12.8 9 -6.922 -0.273
19:16 1012 29.88 841 24.83 -7.4 18.8 65 -12.8 9 -6.939 -0.273
19:17 1012 29.88 841 24.83 -7.4 18.7 66 -12.7 9.1 -6.956 -0.274
19:18 1012 29.88 841 24.83 -7.4 18.7 66 -12.7 9.1 -7.01 -0.276
19:19 1012 29.88 841 24.83 -7.5 18.6 66 -12.8 9 -7.02 -0.276
19:20 1012 29.88 841 24.83 -7.5 18.5 66 -12.8 8.9 -7.07 -0.278
19:21 1012 29.88 841 24.83 -7.6 18.3 67 -12.8 8.9 -7.22 -0.284
19:22 1012 29.88 841 24.83 -7.8 18 67 -12.9 8.9 -7.35 -0.289
19:23 1012 29.88 841 24.83 -7.8 17.9 67 -12.8 8.9 -7.38 -0.291
19:24 1012 29.88 841 24.83 -7.8 17.9 67 -12.9 8.8 -7.42 -0.292
19:25 1012 29.88 841 24.83 -7.9 17.8 67 -13 8.5 -7.47 -0.294
19:26 1012 29.88 841 24.83 -8 17.7 67 -13 8.6 -7.57 -0.298
19:27 1012 29.88 841 24.83 -8.1 17.4 66 -13.3 8 -7.73 -0.304
19:28 1012 29.88 841 24.83 -8.3 17 69 -13.1 8.4 -8.02 -0.316
19:29 1012 29.88 841 24.83 -8.5 16.8 69 -13.2 8.2 -8.04 -0.317
19:30 1012 29.88 841 24.83 -8.4 16.9 69 -13.1 8.5 -7.86 -0.309
19:31 1012 29.88 841 24.83 -8.1 17.4 68 -13.1 8.4 -7.62 -0.3
19:32 1012 29.88 841 24.83 -7.9 17.8 66 -13.2 8.2 -7.37 -0.29
19:33 1012 29.88 841 24.83 -7.7 18.2 64 -13.3 8.1 -7.24 -0.285
19:34 1012 29.88 841 24.83 -7.6 18.4 61 -13.8 7.2 -7.09 -0.279
19:35 1012 29.88 841 24.83 -7.4 18.8 56 -14.8 5.4 -6.906 -0.272
19:36 1012 29.88 841 24.83 -6.9 19.5 55 -14.5 5.8 -6.424 -0.253
19:37 1012 29.88 841 24.83 -6.7 20 57 -13.9 7 -6.181 -0.243
19:38 1012 29.88 841 24.83 -6.4 20.5 57 -13.5 7.7 -5.829 -0.229
19:39 1012 29.88 841 24.83 -5.5 22.1 52 -14 6.8 -5.104 -0.201
19:40 1012 29.88 841 24.83 -5.2 22.7 50 -13.9 6.9 -4.775 -0.188
19:41 1012 29.88 841 24.83 -5 22.9 55 -12.8 9 -4.639 -0.183
19:42 1012 29.88 841 24.83 -4.9 23.2 52 -13.4 8 -4.48 -0.176
19:43 1012 29.88 841 24.83 -4.7 23.5 53 -12.9 8.9 -4.349 -0.171
19:44 1012 29.88 841 24.83 -4.7 23.6 54 -12.7 9.2 -4.23 -0.167
19:45 1012 29.88 841 24.83 -4.8 23.4 54 -12.8 8.9 -4.344 -0.171
19:46 1012 29.88 841 24.83 -4.9 23.3 57 -12 10.3 -4.417 -0.174
19:47 1012 29.88 841 24.83 -4.8 23.4 60 -11.4 11.5 -4.338 -0.171
19:48 1012 29.88 841 24.83 -4.4 24 58 -11.6 11.2 -4.026 -0.159
19:49 1012 29.88 841 24.83 -4.2 24.5 58 -11.3 11.7 -3.788 -0.149
19:50 1012 29.88 841 24.83 -4.2 24.5 56 -11.7 11 -3.753 -0.148
19:51 1012 29.88 841 24.83 -4.2 24.4 57 -11.4 11.5 -3.787 -0.149
19:52 1012 29.88 841 24.83 -4.3 24.3 58 -11.4 11.6 -3.866 -0.152
19:53 1012 29.88 841 24.83 -4.6 23.8 58 -11.6 11.2 -4.137 -0.163
19:54 1012 29.88 841 24.83 -4.8 23.3 59 -11.6 11 -4.369 -0.172
19:55 1012 29.88 841 24.83 -5 23 60 -11.7 11 -4.528 -0.178
19:56 1012 29.88 841 24.83 -5.1 22.8 61 -11.5 11.3 -4.675 -0.184
19:57 1012 29.88 841 24.83 -5.3 22.5 64 -11 12.2 -4.805 -0.189
19:58 1012 29.88 841 24.83 -5.4 22.3 64 -11.2 11.9 -4.935 -0.194
19:59 1012 29.88 841 24.83 -5.4 22.2 63 -11.4 11.4 -4.997 -0.197
20:00 1012 29.88 841 24.83 -5.5 22.1 61 -11.8 10.8 -5.048 -0.199
20:01 1012 29.88 841 24.83 -5.5 22.1 62 -11.8 10.8 -5.099 -0.201
20:02 1012 29.88 841 24.83 -5.6 21.9 64 -11.5 11.3 -5.189 -0.204
20:03 1012 29.88 841 24.83 -5.7 21.7 65 -11.4 11.5 -5.331 -0.21
20:04 1012 29.88 841 24.83 -5.9 21.5 66 -11.3 11.7 -5.422 -0.213
20:05 1012 29.88 841 24.83 -6 21.3 67 -11.2 11.9 -5.502 -0.217
20:06 1012 29.88 841 24.83 -6.1 21 68 -11.2 11.9 -5.683 -0.224
20:07 1012 29.88 841 24.83 -6.3 20.6 69 -11.2 11.9 -5.876 -0.231
20:08 1012 29.88 841 24.83 -6.4 20.4 69 -11.2 11.9 -5.961 -0.235
20:09 1012 29.88 841 24.83 -6.4 20.4 70 -11.1 12 -5.996 -0.236
20:10 1012 29.88 841 24.83 -6.4 20.4 69 -11.2 11.9 -5.99 -0.236
20:11 1012 29.88 841 24.83 -6.3 20.6 69 -11.2 11.9 -5.934 -0.234
20:12 1012 29.88 841 24.83 -6.2 20.9 69 -11 12.1 -5.741 -0.226
20:13 1012 29.88 841 24.83 -5.9 21.4 68 -10.8 12.6 -5.475 -0.216
20:14 1012 29.88 841 24.83 -5.7 21.8 68 -10.6 12.9 -5.276 -0.208
20:15 1012 29.88 841 24.83 -5.6 21.9 69 -10.5 13.1 -5.203 -0.205
20:16 1012 29.88 841 24.83 -5.6 21.9 70 -10.3 13.5 -5.186 -0.204
20:17 1012 29.88 841 24.83 -5.6 21.9 70 -10.2 13.6 -5.18 -0.204
20:18 1012 29.88 841 24.83 -5.6 22 71 -10 14 -5.067 -0.199
20:19 1012 29.88 841 24.83 -5.5 22.1 72 -9.9 14.3 -5.056 -0.199
20:20 1012 29.88 841 24.83 -5.6 21.9 73 -9.7 14.5 -5.13 -0.202
20:21 1012 29.88 841 24.83 -5.7 21.8 74 -9.7 14.6 -5.215 -0.205
20:22 1012 29.88 841 24.83 -5.8 21.6 74 -9.6 14.7 -5.305 -0.209
20:23 1012 29.88 841 24.83 -5.8 21.5 75 -9.6 14.7 -5.374 -0.212
20:24 1012 29.88 841 24.83 -5.8 21.5 74 -9.7 14.6 -5.391 -0.212
20:25 1012 29.88 841 24.83 -5.8 21.6 74 -9.7 14.5 -5.351 -0.211
20:26 1012 29.88 841 24.83 -5.7 21.7 74 -9.7 14.6 -5.3 -0.209
20:27 1012 29.88 841 24.83 -5.7 21.7 74 -9.7 14.5 -5.328 -0.21
20:28 1012 29.88 841 24.83 -5.7 21.7 74 -9.7 14.6 -5.323 -0.21
20:29 1012 29.88 841 24.83 -5.8 21.6 74 -9.7 14.6 -5.357 -0.211
20:30 1012 29.88 841 24.83 -5.8 21.6 74 -9.7 14.6 -5.357 -0.211
20:31 1012 29.88 841 24.83 -5.8 21.6 74 -9.7 14.5 -5.363 -0.211
20:32 1012 29.88 841 24.83 -5.8 21.6 73 -9.8 14.3 -5.317 -0.209
20:33 1012 29.88 841 24.83 -5.7 21.8 73 -9.8 14.4 -5.249 -0.207
20:34 1012 29.88 841 24.83 -5.7 21.7 74 -9.7 14.5 -5.278 -0.208
20:35 1012 29.88 841 24.83 -5.8 21.6 74 -9.7 14.5 -5.323 -0.21
20:36 1012 29.88 841 24.83 -5.8 21.6 74 -9.7 14.5 -5.334 -0.21
20:37 1012 29.88 841 24.83 -5.8 21.6 74 -9.6 14.6 -5.34 -0.21
20:38 1012 29.88 841 24.83 -5.8 21.5 74 -9.7 14.6 -5.368 -0.211
20:39 1012 29.88 841 24.83 -5.8 21.5 74 -9.7 14.6 -5.385 -0.212
20:40 1012 29.88 841 24.83 -5.9 21.4 75 -9.7 14.6 -5.431 -0.214
20:41 1012 29.88 841 24.83 -5.9 21.4 75 -9.7 14.6 -5.493 -0.216
20:42 1012 29.88 841 24.83 -6 21.3 75 -9.7 14.6 -5.573 -0.219
20:43 1012 29.88 841 24.83 -6.1 21.1 75 -9.7 14.5 -5.601 -0.221
20:44 1012 29.88 841 24.83 -6 21.2 75 -9.8 14.4 -5.601 -0.221
20:45 1012 29.88 841 24.83 -6 21.3 75 -9.8 14.4 -5.527 -0.218
20:46 1012 29.88 841 24.83 -5.9 21.3 75 -9.7 14.5 -5.505 -0.217
20:47 1012 29.88 841 24.83 -5.9 21.4 75 -9.7 14.5 -5.493 -0.216
20:48 1012 29.88 841 24.83 -5.9 21.4 75 -9.7 14.6 -5.488 -0.216
20:49 1012 29.88 841 24.83 -5.9 21.3 75 -9.8 14.4 -5.544 -0.218
20:50 1012 29.88 841 24.83 -6 21.3 75 -9.7 14.5 -5.55 -0.219
20:51 1012 29.88 841 24.83 -6 21.1 75 -9.7 14.5 -5.601 -0.221
20:52 1012 29.88 841 24.83 -6.1 21 76 -9.7 14.5 -5.686 -0.224
20:53 1012 29.88 841 24.83 -6.1 20.9 76 -9.6 14.7 -5.709 -0.225
20:54 1012 29.88 841 24.83 -6.2 20.9 77 -9.6 14.7 -5.748 -0.226
20:55 1012 29.88 841 24.83 -6.2 20.8 77 -9.6 14.8 -5.794 -0.228
20:56 1012 29.88 841 24.83 -6.2 20.9 77 -9.5 14.8 -5.777 -0.227
20:57 1012 29.88 841 24.83 -6.2 20.9 77 -9.5 14.9 -5.765 -0.227
20:58 1012 29.88 841 24.83 -6.2 20.9 77 -9.5 14.9 -5.771 -0.227
20:59 1012 29.88 841 24.83 -6.2 20.8 78 -9.5 14.9 -5.737 -0.226
21:00 1012 29.88 841 24.83 -6.2 20.8 78 -9.5 14.9 -5.771 -0.227
21:01 1012 29.88 841 24.83 -6.3 20.7 77 -9.7 14.6 -5.852 -0.23
21:02 1012 29.88 841 24.83 -6.4 20.5 73 -10.4 13.3 -5.908 -0.233
21:03 1012 29.88 841 24.83 -6.4 20.5 70 -10.9 12.4 -5.976 -0.235
21:04 1012 29.88 841 24.83 -6.4 20.6 68 -11.3 11.7 -5.982 -0.236
21:05 1012 29.88 841 24.83 -6.3 20.6 67 -11.5 11.3 -5.925 -0.233
21:06 1012 29.88 841 24.83 -6.3 20.7 67 -11.5 11.3 -5.897 -0.232
21:07 1012 29.88 841 24.83 -6.3 20.7 67 -11.5 11.4 -5.885 -0.232
21:08 1012 29.88 842 24.86 -6.3 20.6 68 -11.4 11.5 -5.965 -0.235
21:09 1012 29.88 842 24.86 -6.4 20.4 71 -10.9 12.4 -6.004 -0.236
21:10 1012 29.88 842 24.86 -6.3 20.6 71 -10.7 12.7 -5.942 -0.234
21:11 1012 29.88 841 24.83 -6.3 20.6 73 -10.4 13.3 -5.902 -0.232
21:12 1012 29.88 841 24.83 -6.1 21 73 -10.2 13.7 -5.692 -0.224
21:13 1012 29.88 841 24.83 -5.8 21.5 72 -10.1 13.8 -5.449 -0.215
21:14 1012 29.88 841 24.83 -5.7 21.8 71 -10.1 13.8 -5.25 -0.207
21:15 1012 29.88 841 24.83 -5.6 21.9 71 -10 14 -5.194 -0.204
21:16 1012 29.88 842 24.86 -5.6 21.9 72 -9.9 14.1 -5.229 -0.206
21:17 1012 29.88 842 24.86 -5.7 21.8 72 -10 14 -5.212 -0.205
21:18 1012 29.88 842 24.86 -5.7 21.7 68 -10.6 12.8 -5.308 -0.209
21:19 1012 29.88 842 24.86 -5.8 21.6 69 -10.6 12.9 -5.343 -0.21
21:20 1012 29.88 842 24.86 -5.8 21.5 69 -10.7 12.8 -5.456 -0.215
21:21 1012 29.88 842 24.86 -6 21.3 67 -11 12.1 -5.569 -0.219
21:22 1012 29.88 842 24.86 -6 21.1 67 -11.3 11.7 -5.665 -0.223
21:23 1012 29.88 842 24.86 -6.1 21 67 -11.2 11.8 -5.733 -0.226
21:24 1012 29.88 842 24.86 -6.1 21 67 -11.4 11.5 -5.745 -0.226
21:25 1012 29.88 842 24.86 -6.2 20.9 65 -11.6 11 -5.751 -0.226
21:26 1012 29.88 842 24.86 -6.2 20.8 67 -11.4 11.6 -5.853 -0.23
21:27 1012 29.88 842 24.86 -6.3 20.6 66 -11.7 10.9 -5.967 -0.235
21:28 1012 29.88 842 24.86 -6.4 20.4 65 -12 10.4 -6.058 -0.239
21:29 1012 29.88 842 24.86 -6.5 20.4 66 -11.9 10.6 -6.069 -0.239
21:30 1012 29.88 842 24.86 -6.5 20.3 66 -11.9 10.5 -6.171 -0.243
21:31 1012 29.88 842 24.86 -6.6 20.2 65 -12.1 10.2 -6.188 -0.244
21:32 1012 29.88 842 24.86 -6.6 20.1 64 -12.4 9.7 -6.216 -0.245
21:33 1012 29.88 842 24.86 -6.6 20.1 61 -13 8.6 -6.215 -0.245
21:34 1012 29.88 842 24.86 -6.5 20.3 60 -13 8.6 -6.142 -0.242
21:35 1012 29.88 842 24.86 -6.5 20.4 61 -12.9 8.8 -6.079 -0.239
21:36 1012 29.88 842 24.86 -6.5 20.3 62 -12.6 9.2 -6.114 -0.241
21:37 1012 29.88 842 24.86 -6.6 20.2 62 -12.7 9.2 -6.176 -0.243
21:38 1012 29.88 842 24.86 -6.7 20 61 -12.9 8.7 -6.256 -0.246
21:39 1013 29.91 842 24.86 -6.7 19.9 62 -12.8 8.9 -6.289 -0.248
21:40 1013 29.91 842 24.86 -6.8 19.8 62 -12.9 8.7 -6.369 -0.251
21:41 1013 29.91 842 24.86 -6.8 19.7 62 -13 8.6 -6.414 -0.253
21:42 1013 29.91 842 24.86 -6.9 19.6 62 -13.1 8.4 -6.493 -0.256
21:43 1013 29.91 842 24.86 -6.9 19.5 61 -13.2 8.2 -6.527 -0.257
21:44 1013 29.91 842 24.86 -6.9 19.6 61 -13.1 8.4 -6.51 -0.256
21:45 1013 29.91 842 24.86 -6.9 19.6 62 -13 8.5 -6.509 -0.256
21:46 1013 29.91 842 24.86 -7 19.5 62 -13.1 8.5 -6.549 -0.258
21:47 1013 29.91 842 24.86 -7 19.5 61 -13.2 8.2 -6.589 -0.259
21:48 1013 29.91 842 24.86 -7 19.4 62 -13.1 8.3 -6.594 -0.26
21:49 1013 29.91 842 24.86 -7 19.4 60 -13.4 7.8 -6.617 -0.261
21:50 1013 29.91 842 24.86 -6.9 19.5 61 -13.3 8.1 -6.526 -0.257
21:51 1013 29.91 842 24.86 -7 19.4 61 -13.3 8 -6.594 -0.26
21:52 1013 29.91 842 24.86 -7 19.3 61 -13.3 8 -6.634 -0.261
21:53 1013 29.91 842 24.86 -7.1 19.2 61 -13.4 7.9 -6.736 -0.265
21:54 1013 29.91 842 24.86 -7.2 19.1 61 -13.5 7.7 -6.775 -0.267
21:55 1013 29.91 842 24.86 -7.2 19 61 -13.5 7.8 -6.849 -0.27
21:56 1013 29.91 842 24.86 -7.3 18.9 61 -13.6 7.5 -6.854 -0.27
21:57 1013 29.91 842 24.86 -7.2 19 61 -13.5 7.6 -6.803 -0.268
21:58 1013 29.91 842 24.86 -7.3 18.9 61 -13.6 7.5 -6.9 -0.272
21:59 1013 29.91 842 24.86 -7.4 18.7 61 -13.6 7.5 -6.968 -0.274
22:00 1013 29.91 842 24.86 -7.6 18.4 62 -13.6 7.6 -7.1 -0.28
22:01 1013 29.91 842 24.86 -7.8 18 63 -13.7 7.3 -7.31 -0.288
22:02 1013 29.91 842 24.86 -7.9 17.8 63 -13.8 7.2 -7.47 -0.294
22:03 1013 29.91 842 24.86 -7.9 17.7 63 -13.8 7.1 -7.49 -0.295
22:04 1013 29.91 842 24.86 -8 17.5 63 -13.9 7.1 -7.62 -0.3
22:05 1013 29.91 842 24.86 -8.2 17.2 64 -14 6.9 -7.79 -0.307
22:06 1013 29.91 842 24.86 -8.3 17 64 -14 6.7 -7.91 -0.311
22:07 1013 29.91 842 24.86 -8.3 17 64 -14.1 6.7 -7.89 -0.311
22:08 1013 29.91 842 24.86 -8.3 17.1 63 -14.1 6.6 -7.87 -0.31
22:09 1013 29.91 842 24.86 -8.3 17 63 -14.1 6.6 -7.89 -0.311
22:10 1013 29.91 842 24.86 -8.4 16.9 64 -14.1 6.6 -7.99 -0.315
22:11 1013 29.91 842 24.86 -8.5 16.7 64 -14.2 6.5 -8.11 -0.319
22:12 1013 29.91 842 24.86 -8.6 16.5 64 -14.2 6.4 -8.19 -0.322
22:13 1013 29.91 842 24.86 -8.7 16.4 64 -14.3 6.3 -8.25 -0.325
22:14 1013 29.91 842 24.86 -8.8 16.2 64 -14.4 6.1 -8.38 -0.33
22:15 1013 29.91 842 24.86 -8.9 16 64 -14.4 6 -8.46 -0.333
22:16 1013 29.91 842 24.86 -9 15.8 65 -14.5 6 -8.53 -0.336
22:17 1013 29.91 842 24.86 -9.1 15.7 65 -14.4 6 -8.65 -0.341
22:18 1013 29.91 842 24.86 -9.1 15.6 65 -14.5 5.9 -8.71 -0.343
22:19 1013 29.91 842 24.86 -9.2 15.5 65 -14.6 5.7 -8.75 -0.344
22:20 1013 29.91 842 24.86 -9.3 15.2 65 -14.7 5.6 -8.88 -0.35
22:21 1013 29.91 842 24.86 -9.5 14.9 66 -14.7 5.5 -9.06 -0.357
22:22 1013 29.91 842 24.86 -9.7 14.6 66 -14.9 5.3 -9.25 -0.364
22:23 1013 29.91 842 24.86 -9.8 14.3 67 -14.9 5.2 -9.39 -0.37
22:24 1013 29.91 842 24.86 -9.9 14.1 67 -14.9 5.2 -9.5 -0.374
22:25 1013 29.91 842 24.86 -9.9 14.2 67 -14.9 5.2 -9.51 -0.374
22:26 1013 29.91 842 24.86 -9.9 14.2 67 -14.9 5.2 -9.5 -0.374
22:27 1013 29.91 842 24.86 -9.9 14.1 67 -14.9 5.2 -9.5 -0.374
22:28 1013 29.91 842 24.86 -10 14 67 -15 5 -9.55 -0.376
22:29 1013 29.91 842 24.86 -10.1 13.9 67 -15 5 -9.65 -0.38
22:30 1013 29.91 842 24.86 -10.2 13.7 68 -15.1 4.8 -9.76 -0.384
22:31 1013 29.91 842 24.86 -10.3 13.6 69 -15 5.1 -9.84 -0.387
22:32 1013 29.91 842 24.86 -10.2 13.6 68 -15 5 -9.83 -0.387
22:33 1013 29.91 842 24.86 -10.3 13.5 68 -15.1 4.9 -9.85 -0.388
22:34 1013 29.91 842 24.86 -10.4 13.3 68 -15.1 4.8 -9.95 -0.392
22:35 1013 29.91 842 24.86 -10.5 13.1 68 -15.2 4.6 -10.04 -0.395
22:36 1013 29.91 842 24.86 -10.6 13 69 -15.2 4.6 -10.14 -0.399
22:37 1013 29.91 842 24.86 -10.7 12.8 69 -15.3 4.4 -10.24 -0.403
22:38 1013 29.91 842 24.86 -10.8 12.6 70 -15.3 4.4 -10.38 -0.409
22:39 1013 29.91 842 24.86 -10.9 12.4 70 -15.4 4.2 -10.47 -0.412
22:40 1013 29.91 842 24.86 -11 12.2 71 -15.4 4.3 -10.6 -0.417
22:41 1013 29.91 842 24.86 -11 12.1 71 -15.4 4.3 -10.57 -0.416
22:42 1013 29.91 842 24.86 -11.1 12 69 -15.7 3.7 -10.69 -0.421
22:43 1013 29.91 842 24.86 -11.4 11.6 70 -15.9 3.4 -10.92 -0.43
22:44 1013 29.91 842 24.86 -11.4 11.5 73 -15.3 4.4 -11.06 -0.435
22:45 1013 29.91 842 24.86 -11.2 11.9 74 -14.9 5.2 -10.78 -0.424
22:46 1013 29.91 842 24.86 -10.8 12.5 73 -14.8 5.4 -10.5 -0.413
22:47 1013 29.91 842 24.86 -10.5 13.1 69 -15.1 4.9 -10.15 -0.4
22:48 1013 29.91 842 24.86 -10.4 13.3 70 -14.9 5.3 -10.03 -0.395
22:49 1013 29.91 842 24.86 -10.3 13.4 70 -14.7 5.5 -9.97 -0.393
22:50 1013 29.91 842 24.86 -10.3 13.5 69 -14.9 5.2 -9.89 -0.389
22:51 1013 29.91 842 24.86 -10.3 13.5 70 -14.7 5.5 -9.84 -0.387
22:52 1013 29.91 842 24.86 -10.2 13.7 70 -14.7 5.6 -9.74 -0.383
22:53 1013 29.91 842 24.86 -10.1 13.8 69 -14.8 5.4 -9.66 -0.38
22:54 1013 29.91 842 24.86 -10.1 13.8 69 -14.7 5.5 -9.71 -0.382
22:55 1013 29.91 842 24.86 -10.1 13.7 71 -14.4 6.1 -9.71 -0.382
22:56 1013 29.91 842 24.86 -9.9 14.1 70 -14.4 6.1 -9.56 -0.376
22:57 1013 29.91 842 24.86 -9.8 14.4 69 -14.4 6.1 -9.39 -0.37
22:58 1013 29.91 842 24.86 -9.6 14.7 70 -14.2 6.5 -9.28 -0.365
22:59 1013 29.91 842 24.86 -9.4 15.1 69 -14 6.7 -9.01 -0.355
23:00 1013 29.91 842 24.86 -9.1 15.5 68 -14 6.8 -8.77 -0.345
23:01 1013 29.91 842 24.86 -9.1 15.6 68 -14 6.8 -8.77 -0.345
23:02 1013 29.91 842 24.86 -9.2 15.4 68 -14 6.8 -8.77 -0.345
23:03 1013 29.91 842 24.86 -9.1 15.7 68 -14 6.8 -8.67 -0.341
23:04 1013 29.91 842 24.86 -9 15.7 67 -14 6.7 -8.66 -0.341
23:05 1013 29.91 842 24.86 -9.1 15.6 68 -14 6.8 -8.72 -0.343
23:06 1013 29.91 842 24.86 -9.2 15.5 69 -13.8 7.1 -8.79 -0.346
23:07 1013 29.91 842 24.86 -9 15.9 68 -13.8 7.1 -8.57 -0.337
23:08 1013 29.91 842 24.86 -8.7 16.3 67 -13.7 7.3 -8.33 -0.328
23:09 1013 29.91 842 24.86 -8.5 16.7 67 -13.7 7.4 -8.15 -0.321
23:10 1013 29.91 842 24.86 -8.4 16.8 65 -13.9 7.1 -8 -0.315
23:11 1013 29.91 842 24.86 -8.6 16.6 65 -13.9 6.9 -8.13 -0.32
23:12 1013 29.91 842 24.86 -8.9 16 67 -14 6.7 -8.44 -0.332
23:13 1013 29.91 842 24.86 -9.2 15.5 67 -14.3 6.3 -8.69 -0.342
23:14 1013 29.91 842 24.86 -9.5 15 69 -14.2 6.4 -8.99 -0.354
23:15 1013 29.91 842 24.86 -9.6 14.8 70 -14.1 6.6 -9.15 -0.36
23:16 1013 29.91 842 24.86 -9.6 14.7 69 -14.3 6.2 -9.17 -0.361
23:17 1013 29.91 842 24.86 -9.7 14.5 71 -14.1 6.6 -9.28 -0.365
23:18 1013 29.91 843 24.89 -9.7 14.6 71 -13.9 6.9 -9.28 -0.365
23:19 1013 29.91 843 24.89 -9.5 15 71 -13.8 7.1 -9.09 -0.358
23:20 1013 29.91 843 24.89 -9.2 15.4 70 -13.7 7.3 -8.84 -0.348
23:21 1013 29.91 843 24.89 -8.9 15.9 69 -13.6 7.5 -8.56 -0.337
23:22 1013 29.91 843 24.89 -8.7 16.3 68 -13.6 7.5 -8.35 -0.329
23:23 1013 29.91 843 24.89 -8.7 16.3 68 -13.7 7.4 -8.31 -0.327
23:24 1013 29.91 843 24.89 -8.9 16 70 -13.4 7.9 -8.46 -0.333
23:25 1013 29.91 843 24.89 -8.9 16 68 -13.7 7.3 -8.46 -0.333
23:26 1013 29.91 843 24.89 -9.1 15.7 69 -13.7 7.3 -8.58 -0.338
23:27 1013 29.91 843 24.89 -9 15.8 70 -13.6 7.5 -8.61 -0.339
23:28 1013 29.91 843 24.89 -8.9 16.1 71 -13.2 8.2 -8.47 -0.333
23:29 1013 29.91 843 24.89 -8.7 16.4 69 -13.3 8 -8.28 -0.326
23:30 1014 29.94 843 24.89 -8.6 16.6 70 -13.2 8.3 -8.17 -0.322
23:31 1014 29.94 843 24.89 -8.5 16.7 70 -13.1 8.5 -8.1 -0.319
23:32 1014 29.94 843 24.89 -8.5 16.8 71 -12.9 8.8 -8.03 -0.316
23:33 1014 29.94 843 24.89 -8.4 16.9 70 -12.9 8.8 -7.95 -0.313
23:34 1014 29.94 843 24.89 -8.3 17 69 -13.1 8.3 -7.91 -0.311
23:35 1014 29.94 843 24.89 -8.3 17 68 -13.2 8.3 -7.9 -0.311
23:36 1014 29.94 843 24.89 -8.4 17 70 -13 8.6 -7.92 -0.312
23:37 1014 29.94 843 24.89 -8.4 16.9 69 -13.1 8.3 -7.92 -0.312
23:38 1014 29.94 843 24.89 -8.4 17 68 -13.2 8.3 -7.96 -0.313
23:39 1014 29.94 843 24.89 -8.4 16.9 69 -13.1 8.3 -8 -0.315
23:40 1014 29.94 843 24.89 -8.5 16.7 69 -13.1 8.4 -8.06 -0.317
23:41 1014 29.94 843 24.89 -8.5 16.6 71 -12.9 8.9 -8.12 -0.32
23:42 1014 29.94 843 24.89 -8.5 16.8 70 -13 8.7 -8.06 -0.317
23:43 1014 29.94 843 24.89 -8.4 16.9 71 -12.8 9 -8.02 -0.316
23:44 1014 29.94 843 24.89 -8.5 16.7 71 -12.8 9 -8.02 -0.316
23:45 1014 29.94 843 24.89 -8.4 16.9 71 -12.8 9 -7.96 -0.313
23:46 1014 29.94 843 24.89 -8.4 16.9 70 -13 8.5 -7.98 -0.314
23:47 1014 29.94 843 24.89 -8.4 16.8 72 -12.7 9.2 -8.01 -0.315
23:48 1014 29.94 843 24.89 -8.4 16.9 72 -12.7 9.2 -7.95 -0.313
23:49 1014 29.94 843 24.89 -8.4 16.8 72 -12.7 9.2 -8 -0.315
23:50 1014 29.94 843 24.89 -8.5 16.7 72 -12.7 9.1 -8.04 -0.317
23:51 1014 29.94 843 24.89 -8.5 16.6 72 -12.7 9.2 -8.11 -0.319
23:52 1014 29.94 843 24.89 -8.6 16.5 73 -12.5 9.5 -8.13 -0.32
23:53 1014 29.94 843 24.89 -8.6 16.5 74 -12.4 9.7 -8.15 -0.321
23:54 1014 29.94 843 24.89 -8.6 16.5 75 -12.3 9.8 -8.16 -0.321
23:55 1014 29.94 843 24.89 -8.6 16.5 76 -12.1 10.2 -8.15 -0.321
23:56 1014 29.94 843 24.89 -8.6 16.5 76 -12.1 10.3 -8.16 -0.321
23:57 1014 29.94 843 24.89 -8.6 16.4 77 -12 10.4 -8.19 -0.322
23:58 1014 29.94 843 24.89 -8.7 16.3 78 -11.9 10.5 -8.25 -0.325
23:59 1014 29.94 843 24.89 -8.8 16.2 79 -11.7 10.9 -8.31 -0.327
24:00 1014 29.94 843 24.89 -8.8 16.2 81 -11.5 11.3 -8.37 -0.33